<?xml version="1.0" encoding="UTF-8" standalone="no" ?>
<gpx xmlns="http://www.topografix.com/GPX/1/1" xmlns:xsi="http://www.w3.org/2001/XMLSchema-instance" xsi:schemaLocation="http://www.topografix.com/GPX/1/1 http://www.topografix.com/GPX/1/1/gpx.xsd" version="1.1" creator="VisuGPX - https://www.visugpx.com">
  <metadata>
    <name>Forêt de Saint-Germain - Château</name>
    <desc><![CDATA[Parcours marche nordique de  9 Km]]></desc>
  </metadata>
  <trk>
    <name><![CDATA[Chateau de ST Germain_R1]]></name>
    <trkseg>
      <trkpt lat="48.90497" lon="2.09686">
        <ele>65.43</ele>
        <time>2022-11-24T08:35:27Z</time>
      </trkpt>
      <trkpt lat="48.90501" lon="2.09691">
        <ele>65.34</ele>
        <time>2022-11-24T08:35:55Z</time>
      </trkpt>
      <trkpt lat="48.90502" lon="2.09692">
        <ele>64.63</ele>
        <time>2022-11-24T08:35:56Z</time>
      </trkpt>
      <trkpt lat="48.90509" lon="2.09698">
        <ele>64.55</ele>
        <time>2022-11-24T08:36:01Z</time>
      </trkpt>
      <trkpt lat="48.90511" lon="2.09698">
        <ele>64.3</ele>
        <time>2022-11-24T08:36:02Z</time>
      </trkpt>
      <trkpt lat="48.90512" lon="2.09699">
        <ele>64.33</ele>
        <time>2022-11-24T08:36:03Z</time>
      </trkpt>
      <trkpt lat="48.90514" lon="2.09699">
        <ele>64.26</ele>
        <time>2022-11-24T08:36:04Z</time>
      </trkpt>
      <trkpt lat="48.90516" lon="2.097">
        <ele>64.26</ele>
        <time>2022-11-24T08:36:05Z</time>
      </trkpt>
      <trkpt lat="48.90517" lon="2.09701">
        <ele>63.99</ele>
        <time>2022-11-24T08:36:06Z</time>
      </trkpt>
      <trkpt lat="48.90519" lon="2.09701">
        <ele>63.86</ele>
        <time>2022-11-24T08:36:07Z</time>
      </trkpt>
      <trkpt lat="48.9052" lon="2.09702">
        <ele>64.2</ele>
        <time>2022-11-24T08:36:08Z</time>
      </trkpt>
      <trkpt lat="48.90521" lon="2.09703">
        <ele>64.14</ele>
        <time>2022-11-24T08:36:09Z</time>
      </trkpt>
      <trkpt lat="48.90526" lon="2.09704">
        <ele>64.4</ele>
        <time>2022-11-24T08:36:13Z</time>
      </trkpt>
      <trkpt lat="48.90542" lon="2.09714">
        <ele>64.12</ele>
        <time>2022-11-24T08:36:26Z</time>
      </trkpt>
      <trkpt lat="48.90555" lon="2.09719">
        <ele>63.8</ele>
        <time>2022-11-24T08:36:38Z</time>
      </trkpt>
      <trkpt lat="48.90557" lon="2.0972">
        <ele>63.53</ele>
        <time>2022-11-24T08:36:40Z</time>
      </trkpt>
      <trkpt lat="48.9056" lon="2.09721">
        <ele>63.53</ele>
        <time>2022-11-24T08:36:41Z</time>
      </trkpt>
      <trkpt lat="48.90565" lon="2.09721">
        <ele>63.07</ele>
        <time>2022-11-24T08:36:44Z</time>
      </trkpt>
      <trkpt lat="48.90567" lon="2.09721">
        <ele>63.22</ele>
        <time>2022-11-24T08:36:45Z</time>
      </trkpt>
      <trkpt lat="48.90569" lon="2.09721">
        <ele>63.19</ele>
        <time>2022-11-24T08:36:46Z</time>
      </trkpt>
      <trkpt lat="48.90577" lon="2.09722">
        <ele>63.16</ele>
        <time>2022-11-24T08:36:50Z</time>
      </trkpt>
      <trkpt lat="48.90589" lon="2.09727">
        <ele>62.68</ele>
        <time>2022-11-24T08:36:58Z</time>
      </trkpt>
      <trkpt lat="48.90591" lon="2.09727">
        <ele>63.51</ele>
        <time>2022-11-24T08:36:59Z</time>
      </trkpt>
      <trkpt lat="48.90592" lon="2.09728">
        <ele>63.11</ele>
        <time>2022-11-24T08:37:00Z</time>
      </trkpt>
      <trkpt lat="48.90594" lon="2.09728">
        <ele>63.19</ele>
        <time>2022-11-24T08:37:01Z</time>
      </trkpt>
      <trkpt lat="48.90595" lon="2.09729">
        <ele>63.03</ele>
        <time>2022-11-24T08:37:02Z</time>
      </trkpt>
      <trkpt lat="48.90596" lon="2.0973">
        <ele>63.41</ele>
        <time>2022-11-24T08:37:03Z</time>
      </trkpt>
      <trkpt lat="48.90598" lon="2.09731">
        <ele>63.06</ele>
        <time>2022-11-24T08:37:04Z</time>
      </trkpt>
      <trkpt lat="48.90601" lon="2.09733">
        <ele>63.55</ele>
        <time>2022-11-24T08:37:06Z</time>
      </trkpt>
      <trkpt lat="48.90604" lon="2.09734">
        <ele>62.81</ele>
        <time>2022-11-24T08:37:08Z</time>
      </trkpt>
      <trkpt lat="48.9062" lon="2.09742">
        <ele>62.52</ele>
        <time>2022-11-24T08:37:20Z</time>
      </trkpt>
      <trkpt lat="48.90632" lon="2.09745">
        <ele>62.16</ele>
        <time>2022-11-24T08:37:29Z</time>
      </trkpt>
      <trkpt lat="48.9065" lon="2.09753">
        <ele>62.25</ele>
        <time>2022-11-24T08:37:42Z</time>
      </trkpt>
      <trkpt lat="48.90652" lon="2.09754">
        <ele>62.17</ele>
        <time>2022-11-24T08:37:43Z</time>
      </trkpt>
      <trkpt lat="48.90653" lon="2.09754">
        <ele>62.05</ele>
        <time>2022-11-24T08:37:44Z</time>
      </trkpt>
      <trkpt lat="48.90655" lon="2.09755">
        <ele>61.76</ele>
        <time>2022-11-24T08:37:45Z</time>
      </trkpt>
      <trkpt lat="48.90665" lon="2.09759">
        <ele>61.51</ele>
        <time>2022-11-24T08:37:53Z</time>
      </trkpt>
      <trkpt lat="48.90685" lon="2.09761">
        <ele>61</ele>
        <time>2022-11-24T08:38:06Z</time>
      </trkpt>
      <trkpt lat="48.90695" lon="2.09762">
        <ele>61.1</ele>
        <time>2022-11-24T08:38:12Z</time>
      </trkpt>
      <trkpt lat="48.90698" lon="2.09763">
        <ele>60.76</ele>
        <time>2022-11-24T08:38:13Z</time>
      </trkpt>
      <trkpt lat="48.90709" lon="2.09768">
        <ele>60.67</ele>
        <time>2022-11-24T08:38:22Z</time>
      </trkpt>
      <trkpt lat="48.90729" lon="2.09772">
        <ele>59.95</ele>
        <time>2022-11-24T08:38:37Z</time>
      </trkpt>
      <trkpt lat="48.90749" lon="2.09781">
        <ele>60.14</ele>
        <time>2022-11-24T08:38:52Z</time>
      </trkpt>
      <trkpt lat="48.90771" lon="2.09789">
        <ele>59.48</ele>
        <time>2022-11-24T08:39:07Z</time>
      </trkpt>
      <trkpt lat="48.9079" lon="2.09798">
        <ele>59.18</ele>
        <time>2022-11-24T08:39:21Z</time>
      </trkpt>
      <trkpt lat="48.90808" lon="2.09801">
        <ele>58.87</ele>
        <time>2022-11-24T08:39:36Z</time>
      </trkpt>
      <trkpt lat="48.90817" lon="2.09803">
        <ele>58.74</ele>
        <time>2022-11-24T08:39:42Z</time>
      </trkpt>
      <trkpt lat="48.90831" lon="2.0981">
        <ele>58.08</ele>
        <time>2022-11-24T08:39:52Z</time>
      </trkpt>
      <trkpt lat="48.90848" lon="2.09814">
        <ele>57.96</ele>
        <time>2022-11-24T08:40:06Z</time>
      </trkpt>
      <trkpt lat="48.90866" lon="2.09818">
        <ele>58.45</ele>
        <time>2022-11-24T08:40:19Z</time>
      </trkpt>
      <trkpt lat="48.90876" lon="2.09823">
        <ele>58.83</ele>
        <time>2022-11-24T08:40:26Z</time>
      </trkpt>
      <trkpt lat="48.90883" lon="2.09827">
        <ele>58.04</ele>
        <time>2022-11-24T08:40:31Z</time>
      </trkpt>
      <trkpt lat="48.90884" lon="2.09828">
        <ele>58.36</ele>
        <time>2022-11-24T08:40:32Z</time>
      </trkpt>
      <trkpt lat="48.90899" lon="2.09834">
        <ele>57.67</ele>
        <time>2022-11-24T08:40:42Z</time>
      </trkpt>
      <trkpt lat="48.90908" lon="2.09836">
        <ele>57.29</ele>
        <time>2022-11-24T08:40:49Z</time>
      </trkpt>
      <trkpt lat="48.90917" lon="2.09838">
        <ele>57.93</ele>
        <time>2022-11-24T08:40:56Z</time>
      </trkpt>
      <trkpt lat="48.9092" lon="2.09839">
        <ele>57.94</ele>
        <time>2022-11-24T08:40:57Z</time>
      </trkpt>
      <trkpt lat="48.90926" lon="2.0984">
        <ele>57.69</ele>
        <time>2022-11-24T08:41:01Z</time>
      </trkpt>
      <trkpt lat="48.90927" lon="2.09841">
        <ele>57.98</ele>
        <time>2022-11-24T08:41:02Z</time>
      </trkpt>
      <trkpt lat="48.90941" lon="2.09847">
        <ele>57.8</ele>
        <time>2022-11-24T08:41:13Z</time>
      </trkpt>
      <trkpt lat="48.90959" lon="2.09852">
        <ele>57.19</ele>
        <time>2022-11-24T08:41:28Z</time>
      </trkpt>
      <trkpt lat="48.90979" lon="2.09859">
        <ele>57.65</ele>
        <time>2022-11-24T08:41:42Z</time>
      </trkpt>
      <trkpt lat="48.90984" lon="2.09861">
        <ele>57.68</ele>
        <time>2022-11-24T08:41:50Z</time>
      </trkpt>
      <trkpt lat="48.90995" lon="2.09862">
        <ele>57.38</ele>
        <time>2022-11-24T08:42:01Z</time>
      </trkpt>
      <trkpt lat="48.91005" lon="2.09865">
        <ele>57.16</ele>
        <time>2022-11-24T08:42:16Z</time>
      </trkpt>
      <trkpt lat="48.9102" lon="2.09875">
        <ele>57.23</ele>
        <time>2022-11-24T08:42:30Z</time>
      </trkpt>
      <trkpt lat="48.9103" lon="2.09873">
        <ele>56.77</ele>
        <time>2022-11-24T08:42:44Z</time>
      </trkpt>
      <trkpt lat="48.91043" lon="2.09876">
        <ele>56.83</ele>
        <time>2022-11-24T08:42:58Z</time>
      </trkpt>
      <trkpt lat="48.9106" lon="2.09883">
        <ele>56.41</ele>
        <time>2022-11-24T08:43:11Z</time>
      </trkpt>
      <trkpt lat="48.91078" lon="2.09893">
        <ele>55.98</ele>
        <time>2022-11-24T08:43:26Z</time>
      </trkpt>
      <trkpt lat="48.91097" lon="2.09902">
        <ele>55.55</ele>
        <time>2022-11-24T08:43:39Z</time>
      </trkpt>
      <trkpt lat="48.91103" lon="2.09904">
        <ele>55.82</ele>
        <time>2022-11-24T08:43:42Z</time>
      </trkpt>
      <trkpt lat="48.91123" lon="2.09905">
        <ele>55.28</ele>
        <time>2022-11-24T08:43:55Z</time>
      </trkpt>
      <trkpt lat="48.9114" lon="2.09909">
        <ele>56.14</ele>
        <time>2022-11-24T08:44:05Z</time>
      </trkpt>
      <trkpt lat="48.9115" lon="2.09913">
        <ele>55.29</ele>
        <time>2022-11-24T08:44:13Z</time>
      </trkpt>
      <trkpt lat="48.91159" lon="2.09922">
        <ele>55.1</ele>
        <time>2022-11-24T08:44:22Z</time>
      </trkpt>
      <trkpt lat="48.91161" lon="2.09922">
        <ele>54.81</ele>
        <time>2022-11-24T08:44:23Z</time>
      </trkpt>
      <trkpt lat="48.91167" lon="2.09925">
        <ele>55.56</ele>
        <time>2022-11-24T08:44:27Z</time>
      </trkpt>
      <trkpt lat="48.9117" lon="2.09928">
        <ele>55.57</ele>
        <time>2022-11-24T08:44:30Z</time>
      </trkpt>
      <trkpt lat="48.91179" lon="2.09933">
        <ele>54.88</ele>
        <time>2022-11-24T08:44:38Z</time>
      </trkpt>
      <trkpt lat="48.91182" lon="2.09933">
        <ele>54.81</ele>
        <time>2022-11-24T08:44:40Z</time>
      </trkpt>
      <trkpt lat="48.91184" lon="2.09933">
        <ele>55.06</ele>
        <time>2022-11-24T08:44:41Z</time>
      </trkpt>
      <trkpt lat="48.91193" lon="2.09931">
        <ele>55.32</ele>
        <time>2022-11-24T08:44:47Z</time>
      </trkpt>
      <trkpt lat="48.91195" lon="2.09931">
        <ele>55.07</ele>
        <time>2022-11-24T08:44:48Z</time>
      </trkpt>
      <trkpt lat="48.91195" lon="2.0993">
        <ele>55.53</ele>
        <time>2022-11-24T08:44:49Z</time>
      </trkpt>
      <trkpt lat="48.91196" lon="2.09929">
        <ele>55.46</ele>
        <time>2022-11-24T08:44:50Z</time>
      </trkpt>
      <trkpt lat="48.91208" lon="2.09911">
        <ele>55.74</ele>
        <time>2022-11-24T08:45:05Z</time>
      </trkpt>
      <trkpt lat="48.9122" lon="2.09888">
        <ele>56.43</ele>
        <time>2022-11-24T08:45:19Z</time>
      </trkpt>
      <trkpt lat="48.91223" lon="2.09879">
        <ele>56.47</ele>
        <time>2022-11-24T08:45:31Z</time>
      </trkpt>
      <trkpt lat="48.91226" lon="2.09873">
        <ele>56.15</ele>
        <time>2022-11-24T08:45:50Z</time>
      </trkpt>
      <trkpt lat="48.91227" lon="2.09873">
        <ele>56.35</ele>
        <time>2022-11-24T08:46:09Z</time>
      </trkpt>
      <trkpt lat="48.91222" lon="2.09879">
        <ele>56.79</ele>
        <time>2022-11-24T08:46:28Z</time>
      </trkpt>
      <trkpt lat="48.91221" lon="2.09885">
        <ele>56.85</ele>
        <time>2022-11-24T08:46:41Z</time>
      </trkpt>
      <trkpt lat="48.91223" lon="2.09888">
        <ele>56.84</ele>
        <time>2022-11-24T08:46:55Z</time>
      </trkpt>
      <trkpt lat="48.91226" lon="2.09878">
        <ele>57.15</ele>
        <time>2022-11-24T08:47:10Z</time>
      </trkpt>
      <trkpt lat="48.91225" lon="2.09877">
        <ele>57.13</ele>
        <time>2022-11-24T08:47:29Z</time>
      </trkpt>
      <trkpt lat="48.91224" lon="2.09875">
        <ele>56.83</ele>
        <time>2022-11-24T08:47:50Z</time>
      </trkpt>
      <trkpt lat="48.91228" lon="2.09859">
        <ele>57.19</ele>
        <time>2022-11-24T08:48:04Z</time>
      </trkpt>
      <trkpt lat="48.91232" lon="2.09846">
        <ele>57.58</ele>
        <time>2022-11-24T08:48:17Z</time>
      </trkpt>
      <trkpt lat="48.91238" lon="2.09824">
        <ele>57.82</ele>
        <time>2022-11-24T08:48:34Z</time>
      </trkpt>
      <trkpt lat="48.91247" lon="2.09801">
        <ele>58.23</ele>
        <time>2022-11-24T08:48:50Z</time>
      </trkpt>
      <trkpt lat="48.91255" lon="2.09781">
        <ele>59.14</ele>
        <time>2022-11-24T08:49:04Z</time>
      </trkpt>
      <trkpt lat="48.91261" lon="2.09753">
        <ele>58.57</ele>
        <time>2022-11-24T08:49:20Z</time>
      </trkpt>
      <trkpt lat="48.91268" lon="2.09734">
        <ele>59.3</ele>
        <time>2022-11-24T08:49:32Z</time>
      </trkpt>
      <trkpt lat="48.91272" lon="2.09711">
        <ele>58.8</ele>
        <time>2022-11-24T08:49:44Z</time>
      </trkpt>
      <trkpt lat="48.91275" lon="2.09692">
        <ele>58.81</ele>
        <time>2022-11-24T08:49:54Z</time>
      </trkpt>
      <trkpt lat="48.91284" lon="2.09666">
        <ele>58.5</ele>
        <time>2022-11-24T08:50:10Z</time>
      </trkpt>
      <trkpt lat="48.9129" lon="2.09638">
        <ele>58.91</ele>
        <time>2022-11-24T08:50:25Z</time>
      </trkpt>
      <trkpt lat="48.913" lon="2.09616">
        <ele>59.19</ele>
        <time>2022-11-24T08:50:40Z</time>
      </trkpt>
      <trkpt lat="48.91303" lon="2.09604">
        <ele>59.32</ele>
        <time>2022-11-24T08:50:47Z</time>
      </trkpt>
      <trkpt lat="48.91312" lon="2.09574">
        <ele>59.36</ele>
        <time>2022-11-24T08:51:03Z</time>
      </trkpt>
      <trkpt lat="48.91317" lon="2.09555">
        <ele>59.45</ele>
        <time>2022-11-24T08:51:14Z</time>
      </trkpt>
      <trkpt lat="48.91322" lon="2.09543">
        <ele>58.97</ele>
        <time>2022-11-24T08:51:21Z</time>
      </trkpt>
      <trkpt lat="48.91323" lon="2.09542">
        <ele>58.82</ele>
        <time>2022-11-24T08:51:22Z</time>
      </trkpt>
      <trkpt lat="48.91324" lon="2.09541">
        <ele>58.7</ele>
        <time>2022-11-24T08:51:23Z</time>
      </trkpt>
      <trkpt lat="48.91325" lon="2.09539">
        <ele>58.39</ele>
        <time>2022-11-24T08:51:24Z</time>
      </trkpt>
      <trkpt lat="48.91326" lon="2.09538">
        <ele>58.66</ele>
        <time>2022-11-24T08:51:25Z</time>
      </trkpt>
      <trkpt lat="48.91327" lon="2.09536">
        <ele>58.99</ele>
        <time>2022-11-24T08:51:26Z</time>
      </trkpt>
      <trkpt lat="48.91328" lon="2.09535">
        <ele>58.85</ele>
        <time>2022-11-24T08:51:27Z</time>
      </trkpt>
      <trkpt lat="48.91331" lon="2.09522">
        <ele>58.83</ele>
        <time>2022-11-24T08:51:35Z</time>
      </trkpt>
      <trkpt lat="48.91335" lon="2.09504">
        <ele>58.2</ele>
        <time>2022-11-24T08:51:45Z</time>
      </trkpt>
      <trkpt lat="48.91336" lon="2.09502">
        <ele>58.58</ele>
        <time>2022-11-24T08:51:46Z</time>
      </trkpt>
      <trkpt lat="48.91337" lon="2.095">
        <ele>58.07</ele>
        <time>2022-11-24T08:51:47Z</time>
      </trkpt>
      <trkpt lat="48.91337" lon="2.09498">
        <ele>58.01</ele>
        <time>2022-11-24T08:51:48Z</time>
      </trkpt>
      <trkpt lat="48.91342" lon="2.09477">
        <ele>57.69</ele>
        <time>2022-11-24T08:51:58Z</time>
      </trkpt>
      <trkpt lat="48.91342" lon="2.09474">
        <ele>57.77</ele>
        <time>2022-11-24T08:51:59Z</time>
      </trkpt>
      <trkpt lat="48.91343" lon="2.0947">
        <ele>57.65</ele>
        <time>2022-11-24T08:52:01Z</time>
      </trkpt>
      <trkpt lat="48.91342" lon="2.09467">
        <ele>57.25</ele>
        <time>2022-11-24T08:52:02Z</time>
      </trkpt>
      <trkpt lat="48.91343" lon="2.09458">
        <ele>57.52</ele>
        <time>2022-11-24T08:52:07Z</time>
      </trkpt>
      <trkpt lat="48.91344" lon="2.09457">
        <ele>58</ele>
        <time>2022-11-24T08:52:08Z</time>
      </trkpt>
      <trkpt lat="48.91345" lon="2.09455">
        <ele>57.65</ele>
        <time>2022-11-24T08:52:09Z</time>
      </trkpt>
      <trkpt lat="48.9135" lon="2.09435">
        <ele>57.21</ele>
        <time>2022-11-24T08:52:21Z</time>
      </trkpt>
      <trkpt lat="48.91356" lon="2.09414">
        <ele>56.87</ele>
        <time>2022-11-24T08:52:34Z</time>
      </trkpt>
      <trkpt lat="48.91356" lon="2.09411">
        <ele>56.64</ele>
        <time>2022-11-24T08:52:35Z</time>
      </trkpt>
      <trkpt lat="48.91355" lon="2.09407">
        <ele>56.36</ele>
        <time>2022-11-24T08:52:36Z</time>
      </trkpt>
      <trkpt lat="48.91357" lon="2.09405">
        <ele>56.66</ele>
        <time>2022-11-24T08:52:37Z</time>
      </trkpt>
      <trkpt lat="48.91359" lon="2.09403">
        <ele>56.17</ele>
        <time>2022-11-24T08:52:39Z</time>
      </trkpt>
      <trkpt lat="48.91365" lon="2.09389">
        <ele>54.8</ele>
        <time>2022-11-24T08:52:49Z</time>
      </trkpt>
      <trkpt lat="48.91373" lon="2.09365">
        <ele>54.18</ele>
        <time>2022-11-24T08:53:02Z</time>
      </trkpt>
      <trkpt lat="48.91382" lon="2.09337">
        <ele>53.06</ele>
        <time>2022-11-24T08:53:18Z</time>
      </trkpt>
      <trkpt lat="48.91388" lon="2.09324">
        <ele>52.69</ele>
        <time>2022-11-24T08:53:25Z</time>
      </trkpt>
      <trkpt lat="48.91388" lon="2.09321">
        <ele>52.33</ele>
        <time>2022-11-24T08:53:26Z</time>
      </trkpt>
      <trkpt lat="48.91388" lon="2.09317">
        <ele>52.81</ele>
        <time>2022-11-24T08:53:28Z</time>
      </trkpt>
      <trkpt lat="48.91388" lon="2.09314">
        <ele>52.3</ele>
        <time>2022-11-24T08:53:29Z</time>
      </trkpt>
      <trkpt lat="48.91388" lon="2.09312">
        <ele>52.68</ele>
        <time>2022-11-24T08:53:30Z</time>
      </trkpt>
      <trkpt lat="48.9139" lon="2.09309">
        <ele>52.28</ele>
        <time>2022-11-24T08:53:32Z</time>
      </trkpt>
      <trkpt lat="48.91397" lon="2.09289">
        <ele>52.62</ele>
        <time>2022-11-24T08:53:45Z</time>
      </trkpt>
      <trkpt lat="48.91403" lon="2.09254">
        <ele>53.29</ele>
        <time>2022-11-24T08:54:01Z</time>
      </trkpt>
      <trkpt lat="48.91415" lon="2.09233">
        <ele>54.35</ele>
        <time>2022-11-24T08:54:16Z</time>
      </trkpt>
      <trkpt lat="48.91419" lon="2.09214">
        <ele>55.02</ele>
        <time>2022-11-24T08:54:30Z</time>
      </trkpt>
      <trkpt lat="48.91426" lon="2.09183">
        <ele>55.88</ele>
        <time>2022-11-24T08:54:42Z</time>
      </trkpt>
      <trkpt lat="48.91432" lon="2.09166">
        <ele>55.86</ele>
        <time>2022-11-24T08:54:53Z</time>
      </trkpt>
      <trkpt lat="48.91438" lon="2.0914">
        <ele>55.5</ele>
        <time>2022-11-24T08:55:06Z</time>
      </trkpt>
      <trkpt lat="48.91439" lon="2.09138">
        <ele>55.82</ele>
        <time>2022-11-24T08:55:07Z</time>
      </trkpt>
      <trkpt lat="48.9144" lon="2.09137">
        <ele>55.85</ele>
        <time>2022-11-24T08:55:08Z</time>
      </trkpt>
      <trkpt lat="48.91441" lon="2.09135">
        <ele>55.71</ele>
        <time>2022-11-24T08:55:09Z</time>
      </trkpt>
      <trkpt lat="48.91442" lon="2.09133">
        <ele>55.08</ele>
        <time>2022-11-24T08:55:10Z</time>
      </trkpt>
      <trkpt lat="48.91443" lon="2.09131">
        <ele>55.48</ele>
        <time>2022-11-24T08:55:11Z</time>
      </trkpt>
      <trkpt lat="48.91447" lon="2.09121">
        <ele>56.31</ele>
        <time>2022-11-24T08:55:22Z</time>
      </trkpt>
      <trkpt lat="48.91452" lon="2.09113">
        <ele>56.34</ele>
        <time>2022-11-24T08:55:34Z</time>
      </trkpt>
      <trkpt lat="48.91462" lon="2.09116">
        <ele>55.61</ele>
        <time>2022-11-24T08:55:48Z</time>
      </trkpt>
      <trkpt lat="48.91463" lon="2.09117">
        <ele>55.88</ele>
        <time>2022-11-24T08:55:49Z</time>
      </trkpt>
      <trkpt lat="48.91466" lon="2.09118">
        <ele>56.12</ele>
        <time>2022-11-24T08:55:51Z</time>
      </trkpt>
      <trkpt lat="48.91479" lon="2.09123">
        <ele>55.72</ele>
        <time>2022-11-24T08:56:04Z</time>
      </trkpt>
      <trkpt lat="48.91484" lon="2.09124">
        <ele>55.72</ele>
        <time>2022-11-24T08:56:07Z</time>
      </trkpt>
      <trkpt lat="48.91485" lon="2.09124">
        <ele>55.82</ele>
        <time>2022-11-24T08:56:08Z</time>
      </trkpt>
      <trkpt lat="48.91486" lon="2.09125">
        <ele>56.37</ele>
        <time>2022-11-24T08:56:09Z</time>
      </trkpt>
      <trkpt lat="48.91496" lon="2.0913">
        <ele>55.93</ele>
        <time>2022-11-24T08:56:18Z</time>
      </trkpt>
      <trkpt lat="48.9151" lon="2.09138">
        <ele>55.76</ele>
        <time>2022-11-24T08:56:30Z</time>
      </trkpt>
      <trkpt lat="48.91519" lon="2.09144">
        <ele>56</ele>
        <time>2022-11-24T08:56:39Z</time>
      </trkpt>
      <trkpt lat="48.91538" lon="2.0915">
        <ele>55.79</ele>
        <time>2022-11-24T08:56:53Z</time>
      </trkpt>
      <trkpt lat="48.91539" lon="2.0915">
        <ele>55.6</ele>
        <time>2022-11-24T08:56:54Z</time>
      </trkpt>
      <trkpt lat="48.91541" lon="2.0915">
        <ele>55.88</ele>
        <time>2022-11-24T08:56:55Z</time>
      </trkpt>
      <trkpt lat="48.91542" lon="2.09151">
        <ele>56.26</ele>
        <time>2022-11-24T08:56:56Z</time>
      </trkpt>
      <trkpt lat="48.91544" lon="2.09151">
        <ele>55.95</ele>
        <time>2022-11-24T08:56:57Z</time>
      </trkpt>
      <trkpt lat="48.91554" lon="2.09154">
        <ele>55.85</ele>
        <time>2022-11-24T08:57:04Z</time>
      </trkpt>
      <trkpt lat="48.91564" lon="2.09158">
        <ele>55.49</ele>
        <time>2022-11-24T08:57:11Z</time>
      </trkpt>
      <trkpt lat="48.91575" lon="2.09165">
        <ele>55.1</ele>
        <time>2022-11-24T08:57:21Z</time>
      </trkpt>
      <trkpt lat="48.91578" lon="2.09167">
        <ele>55.24</ele>
        <time>2022-11-24T08:57:24Z</time>
      </trkpt>
      <trkpt lat="48.9159" lon="2.0917">
        <ele>54.87</ele>
        <time>2022-11-24T08:57:36Z</time>
      </trkpt>
      <trkpt lat="48.91597" lon="2.09175">
        <ele>55.39</ele>
        <time>2022-11-24T08:57:42Z</time>
      </trkpt>
      <trkpt lat="48.91611" lon="2.09182">
        <ele>55.15</ele>
        <time>2022-11-24T08:57:53Z</time>
      </trkpt>
      <trkpt lat="48.91615" lon="2.09183">
        <ele>54.72</ele>
        <time>2022-11-24T08:57:56Z</time>
      </trkpt>
      <trkpt lat="48.91617" lon="2.09184">
        <ele>55.13</ele>
        <time>2022-11-24T08:57:58Z</time>
      </trkpt>
      <trkpt lat="48.91619" lon="2.09184">
        <ele>54.77</ele>
        <time>2022-11-24T08:57:59Z</time>
      </trkpt>
      <trkpt lat="48.9162" lon="2.09185">
        <ele>55.36</ele>
        <time>2022-11-24T08:58:00Z</time>
      </trkpt>
      <trkpt lat="48.91622" lon="2.09187">
        <ele>55.25</ele>
        <time>2022-11-24T08:58:01Z</time>
      </trkpt>
      <trkpt lat="48.91624" lon="2.09188">
        <ele>54.7</ele>
        <time>2022-11-24T08:58:02Z</time>
      </trkpt>
      <trkpt lat="48.91625" lon="2.09188">
        <ele>54.73</ele>
        <time>2022-11-24T08:58:03Z</time>
      </trkpt>
      <trkpt lat="48.91626" lon="2.09189">
        <ele>54.8</ele>
        <time>2022-11-24T08:58:04Z</time>
      </trkpt>
      <trkpt lat="48.91627" lon="2.0919">
        <ele>55.09</ele>
        <time>2022-11-24T08:58:05Z</time>
      </trkpt>
      <trkpt lat="48.91629" lon="2.09192">
        <ele>55.35</ele>
        <time>2022-11-24T08:58:06Z</time>
      </trkpt>
      <trkpt lat="48.9163" lon="2.09193">
        <ele>55.26</ele>
        <time>2022-11-24T08:58:07Z</time>
      </trkpt>
      <trkpt lat="48.91632" lon="2.09193">
        <ele>55.01</ele>
        <time>2022-11-24T08:58:08Z</time>
      </trkpt>
      <trkpt lat="48.91643" lon="2.09199">
        <ele>54.45</ele>
        <time>2022-11-24T08:58:17Z</time>
      </trkpt>
      <trkpt lat="48.91644" lon="2.092">
        <ele>54.21</ele>
        <time>2022-11-24T08:58:18Z</time>
      </trkpt>
      <trkpt lat="48.91646" lon="2.092">
        <ele>54.97</ele>
        <time>2022-11-24T08:58:19Z</time>
      </trkpt>
      <trkpt lat="48.91659" lon="2.09209">
        <ele>54.74</ele>
        <time>2022-11-24T08:58:28Z</time>
      </trkpt>
      <trkpt lat="48.91672" lon="2.09211">
        <ele>54.86</ele>
        <time>2022-11-24T08:58:37Z</time>
      </trkpt>
      <trkpt lat="48.91681" lon="2.09212">
        <ele>54.64</ele>
        <time>2022-11-24T08:58:45Z</time>
      </trkpt>
      <trkpt lat="48.91685" lon="2.09213">
        <ele>54.77</ele>
        <time>2022-11-24T08:58:48Z</time>
      </trkpt>
      <trkpt lat="48.91692" lon="2.09214">
        <ele>54.51</ele>
        <time>2022-11-24T08:58:54Z</time>
      </trkpt>
      <trkpt lat="48.91693" lon="2.09213">
        <ele>54.55</ele>
        <time>2022-11-24T08:58:55Z</time>
      </trkpt>
      <trkpt lat="48.91706" lon="2.09215">
        <ele>55.25</ele>
        <time>2022-11-24T08:59:07Z</time>
      </trkpt>
      <trkpt lat="48.91707" lon="2.09216">
        <ele>55.02</ele>
        <time>2022-11-24T08:59:08Z</time>
      </trkpt>
      <trkpt lat="48.91709" lon="2.09217">
        <ele>55</ele>
        <time>2022-11-24T08:59:10Z</time>
      </trkpt>
      <trkpt lat="48.91711" lon="2.09219">
        <ele>54.73</ele>
        <time>2022-11-24T08:59:11Z</time>
      </trkpt>
      <trkpt lat="48.91724" lon="2.09228">
        <ele>54.73</ele>
        <time>2022-11-24T08:59:21Z</time>
      </trkpt>
      <trkpt lat="48.91731" lon="2.09234">
        <ele>54.97</ele>
        <time>2022-11-24T08:59:28Z</time>
      </trkpt>
      <trkpt lat="48.91732" lon="2.09234">
        <ele>54.96</ele>
        <time>2022-11-24T08:59:29Z</time>
      </trkpt>
      <trkpt lat="48.91733" lon="2.09235">
        <ele>55.09</ele>
        <time>2022-11-24T08:59:30Z</time>
      </trkpt>
      <trkpt lat="48.91747" lon="2.09241">
        <ele>55.1</ele>
        <time>2022-11-24T08:59:41Z</time>
      </trkpt>
      <trkpt lat="48.91751" lon="2.09246">
        <ele>55.47</ele>
        <time>2022-11-24T08:59:45Z</time>
      </trkpt>
      <trkpt lat="48.91752" lon="2.09247">
        <ele>54.81</ele>
        <time>2022-11-24T08:59:46Z</time>
      </trkpt>
      <trkpt lat="48.91753" lon="2.09247">
        <ele>55.31</ele>
        <time>2022-11-24T08:59:47Z</time>
      </trkpt>
      <trkpt lat="48.91754" lon="2.09248">
        <ele>55.47</ele>
        <time>2022-11-24T08:59:48Z</time>
      </trkpt>
      <trkpt lat="48.91756" lon="2.09248">
        <ele>55.19</ele>
        <time>2022-11-24T08:59:49Z</time>
      </trkpt>
      <trkpt lat="48.91758" lon="2.09249">
        <ele>55.06</ele>
        <time>2022-11-24T08:59:50Z</time>
      </trkpt>
      <trkpt lat="48.91759" lon="2.09249">
        <ele>55.11</ele>
        <time>2022-11-24T08:59:51Z</time>
      </trkpt>
      <trkpt lat="48.9176" lon="2.09249">
        <ele>55.14</ele>
        <time>2022-11-24T08:59:52Z</time>
      </trkpt>
      <trkpt lat="48.91762" lon="2.0925">
        <ele>55.13</ele>
        <time>2022-11-24T08:59:53Z</time>
      </trkpt>
      <trkpt lat="48.91763" lon="2.09251">
        <ele>55.23</ele>
        <time>2022-11-24T08:59:54Z</time>
      </trkpt>
      <trkpt lat="48.91764" lon="2.09251">
        <ele>55.37</ele>
        <time>2022-11-24T08:59:55Z</time>
      </trkpt>
      <trkpt lat="48.91766" lon="2.09252">
        <ele>54.86</ele>
        <time>2022-11-24T08:59:56Z</time>
      </trkpt>
      <trkpt lat="48.91767" lon="2.09252">
        <ele>54.83</ele>
        <time>2022-11-24T08:59:57Z</time>
      </trkpt>
      <trkpt lat="48.91768" lon="2.09253">
        <ele>55.28</ele>
        <time>2022-11-24T08:59:58Z</time>
      </trkpt>
      <trkpt lat="48.9177" lon="2.09253">
        <ele>55.44</ele>
        <time>2022-11-24T08:59:59Z</time>
      </trkpt>
      <trkpt lat="48.91772" lon="2.09253">
        <ele>54.74</ele>
        <time>2022-11-24T09:00:00Z</time>
      </trkpt>
      <trkpt lat="48.91773" lon="2.09253">
        <ele>54.8</ele>
        <time>2022-11-24T09:00:01Z</time>
      </trkpt>
      <trkpt lat="48.91775" lon="2.09252">
        <ele>55.11</ele>
        <time>2022-11-24T09:00:02Z</time>
      </trkpt>
      <trkpt lat="48.91776" lon="2.09253">
        <ele>54.94</ele>
        <time>2022-11-24T09:00:03Z</time>
      </trkpt>
      <trkpt lat="48.91778" lon="2.09253">
        <ele>55.58</ele>
        <time>2022-11-24T09:00:04Z</time>
      </trkpt>
      <trkpt lat="48.91779" lon="2.09254">
        <ele>54.91</ele>
        <time>2022-11-24T09:00:05Z</time>
      </trkpt>
      <trkpt lat="48.9179" lon="2.09257">
        <ele>55.01</ele>
        <time>2022-11-24T09:00:13Z</time>
      </trkpt>
      <trkpt lat="48.91799" lon="2.09263">
        <ele>55.55</ele>
        <time>2022-11-24T09:00:24Z</time>
      </trkpt>
      <trkpt lat="48.91811" lon="2.09269">
        <ele>55.7</ele>
        <time>2022-11-24T09:00:40Z</time>
      </trkpt>
      <trkpt lat="48.9181" lon="2.09272">
        <ele>55.65</ele>
        <time>2022-11-24T09:01:00Z</time>
      </trkpt>
      <trkpt lat="48.91816" lon="2.09269">
        <ele>56.01</ele>
        <time>2022-11-24T09:01:19Z</time>
      </trkpt>
      <trkpt lat="48.9182" lon="2.09252">
        <ele>56.03</ele>
        <time>2022-11-24T09:01:33Z</time>
      </trkpt>
      <trkpt lat="48.91827" lon="2.09234">
        <ele>56.59</ele>
        <time>2022-11-24T09:01:48Z</time>
      </trkpt>
      <trkpt lat="48.91836" lon="2.09214">
        <ele>55.9</ele>
        <time>2022-11-24T09:02:01Z</time>
      </trkpt>
      <trkpt lat="48.91839" lon="2.09204">
        <ele>56.69</ele>
        <time>2022-11-24T09:02:06Z</time>
      </trkpt>
      <trkpt lat="48.91839" lon="2.09201">
        <ele>57.13</ele>
        <time>2022-11-24T09:02:07Z</time>
      </trkpt>
      <trkpt lat="48.9184" lon="2.09199">
        <ele>56.46</ele>
        <time>2022-11-24T09:02:08Z</time>
      </trkpt>
      <trkpt lat="48.9184" lon="2.09197">
        <ele>56.44</ele>
        <time>2022-11-24T09:02:09Z</time>
      </trkpt>
      <trkpt lat="48.9184" lon="2.09195">
        <ele>56.75</ele>
        <time>2022-11-24T09:02:10Z</time>
      </trkpt>
      <trkpt lat="48.91846" lon="2.09178">
        <ele>56.54</ele>
        <time>2022-11-24T09:02:22Z</time>
      </trkpt>
      <trkpt lat="48.91849" lon="2.09155">
        <ele>56.85</ele>
        <time>2022-11-24T09:02:36Z</time>
      </trkpt>
      <trkpt lat="48.91853" lon="2.09125">
        <ele>56.8</ele>
        <time>2022-11-24T09:02:52Z</time>
      </trkpt>
      <trkpt lat="48.91856" lon="2.09106">
        <ele>56.84</ele>
        <time>2022-11-24T09:03:01Z</time>
      </trkpt>
      <trkpt lat="48.91861" lon="2.09097">
        <ele>56.85</ele>
        <time>2022-11-24T09:03:07Z</time>
      </trkpt>
      <trkpt lat="48.91873" lon="2.09081">
        <ele>56.41</ele>
        <time>2022-11-24T09:03:23Z</time>
      </trkpt>
      <trkpt lat="48.91884" lon="2.09074">
        <ele>56.36</ele>
        <time>2022-11-24T09:03:32Z</time>
      </trkpt>
      <trkpt lat="48.919" lon="2.09061">
        <ele>55.51</ele>
        <time>2022-11-24T09:03:44Z</time>
      </trkpt>
      <trkpt lat="48.9191" lon="2.09052">
        <ele>55.95</ele>
        <time>2022-11-24T09:04:00Z</time>
      </trkpt>
      <trkpt lat="48.91912" lon="2.09051">
        <ele>55.93</ele>
        <time>2022-11-24T09:04:02Z</time>
      </trkpt>
      <trkpt lat="48.91922" lon="2.09049">
        <ele>55.52</ele>
        <time>2022-11-24T09:04:18Z</time>
      </trkpt>
      <trkpt lat="48.91934" lon="2.09057">
        <ele>55.06</ele>
        <time>2022-11-24T09:04:33Z</time>
      </trkpt>
      <trkpt lat="48.91942" lon="2.09078">
        <ele>54.42</ele>
        <time>2022-11-24T09:04:48Z</time>
      </trkpt>
      <trkpt lat="48.91949" lon="2.09093">
        <ele>55.29</ele>
        <time>2022-11-24T09:05:01Z</time>
      </trkpt>
      <trkpt lat="48.91957" lon="2.09111">
        <ele>54.7</ele>
        <time>2022-11-24T09:05:13Z</time>
      </trkpt>
      <trkpt lat="48.9197" lon="2.09126">
        <ele>54.67</ele>
        <time>2022-11-24T09:05:27Z</time>
      </trkpt>
      <trkpt lat="48.91984" lon="2.09132">
        <ele>54.61</ele>
        <time>2022-11-24T09:05:39Z</time>
      </trkpt>
      <trkpt lat="48.91997" lon="2.09137">
        <ele>54.11</ele>
        <time>2022-11-24T09:05:51Z</time>
      </trkpt>
      <trkpt lat="48.92016" lon="2.09139">
        <ele>53.91</ele>
        <time>2022-11-24T09:06:05Z</time>
      </trkpt>
      <trkpt lat="48.9203" lon="2.0914">
        <ele>53.88</ele>
        <time>2022-11-24T09:06:18Z</time>
      </trkpt>
      <trkpt lat="48.92047" lon="2.09137">
        <ele>53.49</ele>
        <time>2022-11-24T09:06:33Z</time>
      </trkpt>
      <trkpt lat="48.92063" lon="2.09135">
        <ele>53.61</ele>
        <time>2022-11-24T09:06:45Z</time>
      </trkpt>
      <trkpt lat="48.92081" lon="2.09138">
        <ele>53.34</ele>
        <time>2022-11-24T09:06:59Z</time>
      </trkpt>
      <trkpt lat="48.92098" lon="2.0914">
        <ele>52.44</ele>
        <time>2022-11-24T09:07:13Z</time>
      </trkpt>
      <trkpt lat="48.92119" lon="2.09141">
        <ele>52.95</ele>
        <time>2022-11-24T09:07:27Z</time>
      </trkpt>
      <trkpt lat="48.92126" lon="2.09143">
        <ele>52.91</ele>
        <time>2022-11-24T09:07:31Z</time>
      </trkpt>
      <trkpt lat="48.92137" lon="2.09152">
        <ele>52.66</ele>
        <time>2022-11-24T09:07:39Z</time>
      </trkpt>
      <trkpt lat="48.92151" lon="2.09163">
        <ele>52.32</ele>
        <time>2022-11-24T09:07:48Z</time>
      </trkpt>
      <trkpt lat="48.9216" lon="2.09173">
        <ele>52.41</ele>
        <time>2022-11-24T09:07:57Z</time>
      </trkpt>
      <trkpt lat="48.92163" lon="2.09177">
        <ele>52.41</ele>
        <time>2022-11-24T09:08:00Z</time>
      </trkpt>
      <trkpt lat="48.92177" lon="2.0919">
        <ele>51.73</ele>
        <time>2022-11-24T09:08:11Z</time>
      </trkpt>
      <trkpt lat="48.92188" lon="2.092">
        <ele>52.76</ele>
        <time>2022-11-24T09:08:21Z</time>
      </trkpt>
      <trkpt lat="48.92204" lon="2.09216">
        <ele>51.74</ele>
        <time>2022-11-24T09:08:34Z</time>
      </trkpt>
      <trkpt lat="48.92205" lon="2.09217">
        <ele>52.54</ele>
        <time>2022-11-24T09:08:35Z</time>
      </trkpt>
      <trkpt lat="48.92207" lon="2.0922">
        <ele>51.68</ele>
        <time>2022-11-24T09:08:37Z</time>
      </trkpt>
      <trkpt lat="48.92216" lon="2.09232">
        <ele>52.32</ele>
        <time>2022-11-24T09:08:45Z</time>
      </trkpt>
      <trkpt lat="48.92225" lon="2.09246">
        <ele>52.21</ele>
        <time>2022-11-24T09:08:54Z</time>
      </trkpt>
      <trkpt lat="48.92241" lon="2.09266">
        <ele>52.04</ele>
        <time>2022-11-24T09:09:09Z</time>
      </trkpt>
      <trkpt lat="48.92244" lon="2.0927">
        <ele>51.73</ele>
        <time>2022-11-24T09:09:12Z</time>
      </trkpt>
      <trkpt lat="48.92258" lon="2.09283">
        <ele>51.67</ele>
        <time>2022-11-24T09:09:24Z</time>
      </trkpt>
      <trkpt lat="48.92271" lon="2.09298">
        <ele>51.69</ele>
        <time>2022-11-24T09:09:37Z</time>
      </trkpt>
      <trkpt lat="48.92274" lon="2.09302">
        <ele>51.84</ele>
        <time>2022-11-24T09:09:40Z</time>
      </trkpt>
      <trkpt lat="48.92287" lon="2.09314">
        <ele>51.87</ele>
        <time>2022-11-24T09:09:49Z</time>
      </trkpt>
      <trkpt lat="48.92293" lon="2.09322">
        <ele>51.62</ele>
        <time>2022-11-24T09:09:54Z</time>
      </trkpt>
      <trkpt lat="48.92298" lon="2.09328">
        <ele>51.95</ele>
        <time>2022-11-24T09:09:58Z</time>
      </trkpt>
      <trkpt lat="48.92301" lon="2.09331">
        <ele>51.67</ele>
        <time>2022-11-24T09:10:00Z</time>
      </trkpt>
      <trkpt lat="48.92307" lon="2.09339">
        <ele>51.8</ele>
        <time>2022-11-24T09:10:06Z</time>
      </trkpt>
      <trkpt lat="48.92322" lon="2.09354">
        <ele>51.79</ele>
        <time>2022-11-24T09:10:18Z</time>
      </trkpt>
      <trkpt lat="48.92326" lon="2.09358">
        <ele>51.82</ele>
        <time>2022-11-24T09:10:22Z</time>
      </trkpt>
      <trkpt lat="48.9233" lon="2.09363">
        <ele>51.9</ele>
        <time>2022-11-24T09:10:26Z</time>
      </trkpt>
      <trkpt lat="48.92344" lon="2.09383">
        <ele>51.04</ele>
        <time>2022-11-24T09:10:36Z</time>
      </trkpt>
      <trkpt lat="48.92349" lon="2.09391">
        <ele>51.78</ele>
        <time>2022-11-24T09:10:41Z</time>
      </trkpt>
      <trkpt lat="48.92354" lon="2.09395">
        <ele>51.23</ele>
        <time>2022-11-24T09:10:44Z</time>
      </trkpt>
      <trkpt lat="48.92358" lon="2.09398">
        <ele>51.25</ele>
        <time>2022-11-24T09:10:47Z</time>
      </trkpt>
      <trkpt lat="48.92364" lon="2.09408">
        <ele>51.94</ele>
        <time>2022-11-24T09:10:51Z</time>
      </trkpt>
      <trkpt lat="48.92366" lon="2.0941">
        <ele>52.32</ele>
        <time>2022-11-24T09:10:52Z</time>
      </trkpt>
      <trkpt lat="48.92369" lon="2.09414">
        <ele>51.36</ele>
        <time>2022-11-24T09:10:54Z</time>
      </trkpt>
      <trkpt lat="48.9237" lon="2.09415">
        <ele>52.02</ele>
        <time>2022-11-24T09:10:55Z</time>
      </trkpt>
      <trkpt lat="48.92372" lon="2.09416">
        <ele>51.97</ele>
        <time>2022-11-24T09:10:56Z</time>
      </trkpt>
      <trkpt lat="48.92373" lon="2.09417">
        <ele>52.06</ele>
        <time>2022-11-24T09:10:57Z</time>
      </trkpt>
      <trkpt lat="48.92375" lon="2.09418">
        <ele>51.72</ele>
        <time>2022-11-24T09:10:58Z</time>
      </trkpt>
      <trkpt lat="48.92391" lon="2.09434">
        <ele>52.1</ele>
        <time>2022-11-24T09:11:09Z</time>
      </trkpt>
      <trkpt lat="48.92394" lon="2.0944">
        <ele>52.04</ele>
        <time>2022-11-24T09:11:12Z</time>
      </trkpt>
      <trkpt lat="48.92395" lon="2.09442">
        <ele>51.86</ele>
        <time>2022-11-24T09:11:13Z</time>
      </trkpt>
      <trkpt lat="48.92414" lon="2.09464">
        <ele>51.44</ele>
        <time>2022-11-24T09:11:28Z</time>
      </trkpt>
      <trkpt lat="48.92425" lon="2.09477">
        <ele>51.34</ele>
        <time>2022-11-24T09:11:35Z</time>
      </trkpt>
      <trkpt lat="48.92432" lon="2.09483">
        <ele>52.04</ele>
        <time>2022-11-24T09:11:39Z</time>
      </trkpt>
      <trkpt lat="48.92445" lon="2.09496">
        <ele>52.45</ele>
        <time>2022-11-24T09:11:47Z</time>
      </trkpt>
      <trkpt lat="48.92451" lon="2.09505">
        <ele>52.47</ele>
        <time>2022-11-24T09:11:52Z</time>
      </trkpt>
      <trkpt lat="48.92452" lon="2.09505">
        <ele>52</ele>
        <time>2022-11-24T09:11:53Z</time>
      </trkpt>
      <trkpt lat="48.92456" lon="2.09508">
        <ele>51.64</ele>
        <time>2022-11-24T09:11:56Z</time>
      </trkpt>
      <trkpt lat="48.92465" lon="2.09516">
        <ele>52.19</ele>
        <time>2022-11-24T09:12:02Z</time>
      </trkpt>
      <trkpt lat="48.92475" lon="2.09529">
        <ele>51.9</ele>
        <time>2022-11-24T09:12:11Z</time>
      </trkpt>
      <trkpt lat="48.92476" lon="2.09531">
        <ele>52.35</ele>
        <time>2022-11-24T09:12:12Z</time>
      </trkpt>
      <trkpt lat="48.92478" lon="2.09533">
        <ele>52.35</ele>
        <time>2022-11-24T09:12:13Z</time>
      </trkpt>
      <trkpt lat="48.9248" lon="2.09536">
        <ele>51.8</ele>
        <time>2022-11-24T09:12:15Z</time>
      </trkpt>
      <trkpt lat="48.92481" lon="2.09538">
        <ele>53</ele>
        <time>2022-11-24T09:12:16Z</time>
      </trkpt>
      <trkpt lat="48.92493" lon="2.09553">
        <ele>52.02</ele>
        <time>2022-11-24T09:12:26Z</time>
      </trkpt>
      <trkpt lat="48.92495" lon="2.09558">
        <ele>52.13</ele>
        <time>2022-11-24T09:12:29Z</time>
      </trkpt>
      <trkpt lat="48.92496" lon="2.0956">
        <ele>51.95</ele>
        <time>2022-11-24T09:12:31Z</time>
      </trkpt>
      <trkpt lat="48.92496" lon="2.09562">
        <ele>52.46</ele>
        <time>2022-11-24T09:12:32Z</time>
      </trkpt>
      <trkpt lat="48.92496" lon="2.09564">
        <ele>52.31</ele>
        <time>2022-11-24T09:12:33Z</time>
      </trkpt>
      <trkpt lat="48.92498" lon="2.09567">
        <ele>52.18</ele>
        <time>2022-11-24T09:12:35Z</time>
      </trkpt>
      <trkpt lat="48.92506" lon="2.09577">
        <ele>52.77</ele>
        <time>2022-11-24T09:12:43Z</time>
      </trkpt>
      <trkpt lat="48.92508" lon="2.09578">
        <ele>52.78</ele>
        <time>2022-11-24T09:12:44Z</time>
      </trkpt>
      <trkpt lat="48.9251" lon="2.0958">
        <ele>52.78</ele>
        <time>2022-11-24T09:12:46Z</time>
      </trkpt>
      <trkpt lat="48.92512" lon="2.0958">
        <ele>52.14</ele>
        <time>2022-11-24T09:12:47Z</time>
      </trkpt>
      <trkpt lat="48.92513" lon="2.0958">
        <ele>52.58</ele>
        <time>2022-11-24T09:12:48Z</time>
      </trkpt>
      <trkpt lat="48.92519" lon="2.09581">
        <ele>52.76</ele>
        <time>2022-11-24T09:12:52Z</time>
      </trkpt>
      <trkpt lat="48.9252" lon="2.09582">
        <ele>52.56</ele>
        <time>2022-11-24T09:12:53Z</time>
      </trkpt>
      <trkpt lat="48.92529" lon="2.09587">
        <ele>52.28</ele>
        <time>2022-11-24T09:13:03Z</time>
      </trkpt>
      <trkpt lat="48.92534" lon="2.09589">
        <ele>53.02</ele>
        <time>2022-11-24T09:13:18Z</time>
      </trkpt>
      <trkpt lat="48.92535" lon="2.09589">
        <ele>52.65</ele>
        <time>2022-11-24T09:13:34Z</time>
      </trkpt>
      <trkpt lat="48.9254" lon="2.09585">
        <ele>52.49</ele>
        <time>2022-11-24T09:13:51Z</time>
      </trkpt>
      <trkpt lat="48.92549" lon="2.09585">
        <ele>52.32</ele>
        <time>2022-11-24T09:14:04Z</time>
      </trkpt>
      <trkpt lat="48.92568" lon="2.09585">
        <ele>52.2</ele>
        <time>2022-11-24T09:14:19Z</time>
      </trkpt>
      <trkpt lat="48.92569" lon="2.09585">
        <ele>52.16</ele>
        <time>2022-11-24T09:14:20Z</time>
      </trkpt>
      <trkpt lat="48.92581" lon="2.09584">
        <ele>51.87</ele>
        <time>2022-11-24T09:14:32Z</time>
      </trkpt>
      <trkpt lat="48.92597" lon="2.09582">
        <ele>52.07</ele>
        <time>2022-11-24T09:14:46Z</time>
      </trkpt>
      <trkpt lat="48.92611" lon="2.09584">
        <ele>51.76</ele>
        <time>2022-11-24T09:15:00Z</time>
      </trkpt>
      <trkpt lat="48.92631" lon="2.09584">
        <ele>51.22</ele>
        <time>2022-11-24T09:15:17Z</time>
      </trkpt>
      <trkpt lat="48.9266" lon="2.0958">
        <ele>51.27</ele>
        <time>2022-11-24T09:15:33Z</time>
      </trkpt>
      <trkpt lat="48.92679" lon="2.09581">
        <ele>51.48</ele>
        <time>2022-11-24T09:15:51Z</time>
      </trkpt>
      <trkpt lat="48.92695" lon="2.0958">
        <ele>51.81</ele>
        <time>2022-11-24T09:16:06Z</time>
      </trkpt>
      <trkpt lat="48.92713" lon="2.09583">
        <ele>51.74</ele>
        <time>2022-11-24T09:16:21Z</time>
      </trkpt>
      <trkpt lat="48.92729" lon="2.09584">
        <ele>51.07</ele>
        <time>2022-11-24T09:16:34Z</time>
      </trkpt>
      <trkpt lat="48.92747" lon="2.0958">
        <ele>51.45</ele>
        <time>2022-11-24T09:16:44Z</time>
      </trkpt>
      <trkpt lat="48.92761" lon="2.09579">
        <ele>51.56</ele>
        <time>2022-11-24T09:16:57Z</time>
      </trkpt>
      <trkpt lat="48.92782" lon="2.09575">
        <ele>51.11</ele>
        <time>2022-11-24T09:17:12Z</time>
      </trkpt>
      <trkpt lat="48.92784" lon="2.09575">
        <ele>51.37</ele>
        <time>2022-11-24T09:17:13Z</time>
      </trkpt>
      <trkpt lat="48.9279" lon="2.09573">
        <ele>51.06</ele>
        <time>2022-11-24T09:17:17Z</time>
      </trkpt>
      <trkpt lat="48.92811" lon="2.09572">
        <ele>51.67</ele>
        <time>2022-11-24T09:17:31Z</time>
      </trkpt>
      <trkpt lat="48.92816" lon="2.09572">
        <ele>51.43</ele>
        <time>2022-11-24T09:17:36Z</time>
      </trkpt>
      <trkpt lat="48.92823" lon="2.09576">
        <ele>51.25</ele>
        <time>2022-11-24T09:17:53Z</time>
      </trkpt>
      <trkpt lat="48.92839" lon="2.09576">
        <ele>51.82</ele>
        <time>2022-11-24T09:18:09Z</time>
      </trkpt>
      <trkpt lat="48.92858" lon="2.09573">
        <ele>51.49</ele>
        <time>2022-11-24T09:18:23Z</time>
      </trkpt>
      <trkpt lat="48.92875" lon="2.09571">
        <ele>51.35</ele>
        <time>2022-11-24T09:18:38Z</time>
      </trkpt>
      <trkpt lat="48.92902" lon="2.09573">
        <ele>50.65</ele>
        <time>2022-11-24T09:18:54Z</time>
      </trkpt>
      <trkpt lat="48.92921" lon="2.09572">
        <ele>51.28</ele>
        <time>2022-11-24T09:19:09Z</time>
      </trkpt>
      <trkpt lat="48.92941" lon="2.09572">
        <ele>50.7</ele>
        <time>2022-11-24T09:19:23Z</time>
      </trkpt>
      <trkpt lat="48.92968" lon="2.09567">
        <ele>50.3</ele>
        <time>2022-11-24T09:19:41Z</time>
      </trkpt>
      <trkpt lat="48.92969" lon="2.09567">
        <ele>50.11</ele>
        <time>2022-11-24T09:19:42Z</time>
      </trkpt>
      <trkpt lat="48.9297" lon="2.09567">
        <ele>50.21</ele>
        <time>2022-11-24T09:19:43Z</time>
      </trkpt>
      <trkpt lat="48.92994" lon="2.09567">
        <ele>50.58</ele>
        <time>2022-11-24T09:19:59Z</time>
      </trkpt>
      <trkpt lat="48.93011" lon="2.09572">
        <ele>50.57</ele>
        <time>2022-11-24T09:20:13Z</time>
      </trkpt>
      <trkpt lat="48.93014" lon="2.09572">
        <ele>50.23</ele>
        <time>2022-11-24T09:20:16Z</time>
      </trkpt>
      <trkpt lat="48.93024" lon="2.09571">
        <ele>50.43</ele>
        <time>2022-11-24T09:20:21Z</time>
      </trkpt>
      <trkpt lat="48.93038" lon="2.0957">
        <ele>50.44</ele>
        <time>2022-11-24T09:20:33Z</time>
      </trkpt>
      <trkpt lat="48.93052" lon="2.09565">
        <ele>50.06</ele>
        <time>2022-11-24T09:20:47Z</time>
      </trkpt>
      <trkpt lat="48.93076" lon="2.09568">
        <ele>50.56</ele>
        <time>2022-11-24T09:21:00Z</time>
      </trkpt>
      <trkpt lat="48.93099" lon="2.09568">
        <ele>50.18</ele>
        <time>2022-11-24T09:21:16Z</time>
      </trkpt>
      <trkpt lat="48.93118" lon="2.09564">
        <ele>51.18</ele>
        <time>2022-11-24T09:21:31Z</time>
      </trkpt>
      <trkpt lat="48.93124" lon="2.09564">
        <ele>50.49</ele>
        <time>2022-11-24T09:21:33Z</time>
      </trkpt>
      <trkpt lat="48.93125" lon="2.09564">
        <ele>51.23</ele>
        <time>2022-11-24T09:21:34Z</time>
      </trkpt>
      <trkpt lat="48.93144" lon="2.09561">
        <ele>50.79</ele>
        <time>2022-11-24T09:21:49Z</time>
      </trkpt>
      <trkpt lat="48.93147" lon="2.0956">
        <ele>50.77</ele>
        <time>2022-11-24T09:21:51Z</time>
      </trkpt>
      <trkpt lat="48.93149" lon="2.09559">
        <ele>51.02</ele>
        <time>2022-11-24T09:21:52Z</time>
      </trkpt>
      <trkpt lat="48.93167" lon="2.0956">
        <ele>51.04</ele>
        <time>2022-11-24T09:22:07Z</time>
      </trkpt>
      <trkpt lat="48.93172" lon="2.09565">
        <ele>51.33</ele>
        <time>2022-11-24T09:22:21Z</time>
      </trkpt>
      <trkpt lat="48.93175" lon="2.09571">
        <ele>51.58</ele>
        <time>2022-11-24T09:22:40Z</time>
      </trkpt>
      <trkpt lat="48.93188" lon="2.0958">
        <ele>51.47</ele>
        <time>2022-11-24T09:22:56Z</time>
      </trkpt>
      <trkpt lat="48.93201" lon="2.09583">
        <ele>50.79</ele>
        <time>2022-11-24T09:23:11Z</time>
      </trkpt>
      <trkpt lat="48.93204" lon="2.09585">
        <ele>51.01</ele>
        <time>2022-11-24T09:23:14Z</time>
      </trkpt>
      <trkpt lat="48.93223" lon="2.09594">
        <ele>51.32</ele>
        <time>2022-11-24T09:23:29Z</time>
      </trkpt>
      <trkpt lat="48.9323" lon="2.09601">
        <ele>51.89</ele>
        <time>2022-11-24T09:23:40Z</time>
      </trkpt>
      <trkpt lat="48.93235" lon="2.09603">
        <ele>51.62</ele>
        <time>2022-11-24T09:23:43Z</time>
      </trkpt>
      <trkpt lat="48.93245" lon="2.09607">
        <ele>51.43</ele>
        <time>2022-11-24T09:23:52Z</time>
      </trkpt>
      <trkpt lat="48.93246" lon="2.09608">
        <ele>51.19</ele>
        <time>2022-11-24T09:23:53Z</time>
      </trkpt>
      <trkpt lat="48.93263" lon="2.09623">
        <ele>51.81</ele>
        <time>2022-11-24T09:24:09Z</time>
      </trkpt>
      <trkpt lat="48.93278" lon="2.09638">
        <ele>52.25</ele>
        <time>2022-11-24T09:24:23Z</time>
      </trkpt>
      <trkpt lat="48.93287" lon="2.09651">
        <ele>51.88</ele>
        <time>2022-11-24T09:24:35Z</time>
      </trkpt>
      <trkpt lat="48.9329" lon="2.09663">
        <ele>51.56</ele>
        <time>2022-11-24T09:24:40Z</time>
      </trkpt>
      <trkpt lat="48.93296" lon="2.09674">
        <ele>52.31</ele>
        <time>2022-11-24T09:24:47Z</time>
      </trkpt>
      <trkpt lat="48.93299" lon="2.09681">
        <ele>51.25</ele>
        <time>2022-11-24T09:24:51Z</time>
      </trkpt>
      <trkpt lat="48.93307" lon="2.09697">
        <ele>51.91</ele>
        <time>2022-11-24T09:25:00Z</time>
      </trkpt>
      <trkpt lat="48.93307" lon="2.09699">
        <ele>51.61</ele>
        <time>2022-11-24T09:25:01Z</time>
      </trkpt>
      <trkpt lat="48.93314" lon="2.09721">
        <ele>52.01</ele>
        <time>2022-11-24T09:25:15Z</time>
      </trkpt>
      <trkpt lat="48.93315" lon="2.09744">
        <ele>51.91</ele>
        <time>2022-11-24T09:25:31Z</time>
      </trkpt>
      <trkpt lat="48.93311" lon="2.0976">
        <ele>51.69</ele>
        <time>2022-11-24T09:25:43Z</time>
      </trkpt>
      <trkpt lat="48.93302" lon="2.09793">
        <ele>51.96</ele>
        <time>2022-11-24T09:26:00Z</time>
      </trkpt>
      <trkpt lat="48.93296" lon="2.09823">
        <ele>52.17</ele>
        <time>2022-11-24T09:26:16Z</time>
      </trkpt>
      <trkpt lat="48.93296" lon="2.09832">
        <ele>51.76</ele>
        <time>2022-11-24T09:26:21Z</time>
      </trkpt>
      <trkpt lat="48.93302" lon="2.09865">
        <ele>52.13</ele>
        <time>2022-11-24T09:26:37Z</time>
      </trkpt>
      <trkpt lat="48.93304" lon="2.0989">
        <ele>52.18</ele>
        <time>2022-11-24T09:26:51Z</time>
      </trkpt>
      <trkpt lat="48.93304" lon="2.09895">
        <ele>51.93</ele>
        <time>2022-11-24T09:26:53Z</time>
      </trkpt>
      <trkpt lat="48.93302" lon="2.09926">
        <ele>52.27</ele>
        <time>2022-11-24T09:27:09Z</time>
      </trkpt>
      <trkpt lat="48.933" lon="2.09956">
        <ele>52.53</ele>
        <time>2022-11-24T09:27:25Z</time>
      </trkpt>
      <trkpt lat="48.93297" lon="2.09988">
        <ele>51.33</ele>
        <time>2022-11-24T09:27:42Z</time>
      </trkpt>
      <trkpt lat="48.93295" lon="2.10019">
        <ele>51.69</ele>
        <time>2022-11-24T09:27:57Z</time>
      </trkpt>
      <trkpt lat="48.93292" lon="2.10051">
        <ele>51.2</ele>
        <time>2022-11-24T09:28:13Z</time>
      </trkpt>
      <trkpt lat="48.93291" lon="2.10066">
        <ele>50.86</ele>
        <time>2022-11-24T09:28:22Z</time>
      </trkpt>
      <trkpt lat="48.9329" lon="2.10092">
        <ele>51.65</ele>
        <time>2022-11-24T09:28:36Z</time>
      </trkpt>
      <trkpt lat="48.93289" lon="2.10121">
        <ele>51.26</ele>
        <time>2022-11-24T09:28:52Z</time>
      </trkpt>
      <trkpt lat="48.93288" lon="2.10133">
        <ele>51.25</ele>
        <time>2022-11-24T09:28:57Z</time>
      </trkpt>
      <trkpt lat="48.93285" lon="2.10157">
        <ele>50.95</ele>
        <time>2022-11-24T09:29:09Z</time>
      </trkpt>
      <trkpt lat="48.93284" lon="2.10189">
        <ele>50.9</ele>
        <time>2022-11-24T09:29:26Z</time>
      </trkpt>
      <trkpt lat="48.93285" lon="2.1021">
        <ele>51.12</ele>
        <time>2022-11-24T09:29:35Z</time>
      </trkpt>
      <trkpt lat="48.93287" lon="2.10225">
        <ele>50.81</ele>
        <time>2022-11-24T09:29:41Z</time>
      </trkpt>
      <trkpt lat="48.93286" lon="2.10241">
        <ele>50.91</ele>
        <time>2022-11-24T09:29:51Z</time>
      </trkpt>
      <trkpt lat="48.93285" lon="2.10263">
        <ele>50.58</ele>
        <time>2022-11-24T09:30:03Z</time>
      </trkpt>
      <trkpt lat="48.93282" lon="2.10296">
        <ele>50.48</ele>
        <time>2022-11-24T09:30:19Z</time>
      </trkpt>
      <trkpt lat="48.9328" lon="2.1032">
        <ele>50.61</ele>
        <time>2022-11-24T09:30:33Z</time>
      </trkpt>
      <trkpt lat="48.93275" lon="2.10347">
        <ele>49.94</ele>
        <time>2022-11-24T09:30:46Z</time>
      </trkpt>
      <trkpt lat="48.93271" lon="2.10379">
        <ele>50.15</ele>
        <time>2022-11-24T09:31:02Z</time>
      </trkpt>
      <trkpt lat="48.93264" lon="2.10407">
        <ele>50.21</ele>
        <time>2022-11-24T09:31:17Z</time>
      </trkpt>
      <trkpt lat="48.9326" lon="2.10424">
        <ele>50.11</ele>
        <time>2022-11-24T09:31:24Z</time>
      </trkpt>
      <trkpt lat="48.93254" lon="2.10452">
        <ele>50.28</ele>
        <time>2022-11-24T09:31:40Z</time>
      </trkpt>
      <trkpt lat="48.93256" lon="2.10469">
        <ele>50.3</ele>
        <time>2022-11-24T09:31:49Z</time>
      </trkpt>
      <trkpt lat="48.93257" lon="2.10481">
        <ele>50.03</ele>
        <time>2022-11-24T09:31:54Z</time>
      </trkpt>
      <trkpt lat="48.93252" lon="2.10508">
        <ele>49.78</ele>
        <time>2022-11-24T09:32:10Z</time>
      </trkpt>
      <trkpt lat="48.9325" lon="2.10542">
        <ele>49.52</ele>
        <time>2022-11-24T09:32:25Z</time>
      </trkpt>
      <trkpt lat="48.93245" lon="2.10569">
        <ele>49.87</ele>
        <time>2022-11-24T09:32:40Z</time>
      </trkpt>
      <trkpt lat="48.93248" lon="2.10584">
        <ele>50.18</ele>
        <time>2022-11-24T09:32:51Z</time>
      </trkpt>
      <trkpt lat="48.93245" lon="2.10601">
        <ele>50.14</ele>
        <time>2022-11-24T09:33:05Z</time>
      </trkpt>
      <trkpt lat="48.93243" lon="2.10608">
        <ele>50.09</ele>
        <time>2022-11-24T09:33:26Z</time>
      </trkpt>
      <trkpt lat="48.93244" lon="2.10625">
        <ele>49.76</ele>
        <time>2022-11-24T09:33:43Z</time>
      </trkpt>
      <trkpt lat="48.93249" lon="2.10644">
        <ele>49.79</ele>
        <time>2022-11-24T09:33:58Z</time>
      </trkpt>
      <trkpt lat="48.93249" lon="2.10664">
        <ele>50.18</ele>
        <time>2022-11-24T09:34:15Z</time>
      </trkpt>
      <trkpt lat="48.9325" lon="2.10684">
        <ele>49.93</ele>
        <time>2022-11-24T09:34:29Z</time>
      </trkpt>
      <trkpt lat="48.9325" lon="2.10685">
        <ele>50.21</ele>
        <time>2022-11-24T09:34:30Z</time>
      </trkpt>
      <trkpt lat="48.93249" lon="2.10711">
        <ele>49.61</ele>
        <time>2022-11-24T09:34:46Z</time>
      </trkpt>
      <trkpt lat="48.93248" lon="2.10716">
        <ele>49.52</ele>
        <time>2022-11-24T09:34:49Z</time>
      </trkpt>
      <trkpt lat="48.93247" lon="2.10724">
        <ele>49.92</ele>
        <time>2022-11-24T09:34:53Z</time>
      </trkpt>
      <trkpt lat="48.93243" lon="2.1074">
        <ele>49.75</ele>
        <time>2022-11-24T09:35:03Z</time>
      </trkpt>
      <trkpt lat="48.93235" lon="2.10771">
        <ele>49.79</ele>
        <time>2022-11-24T09:35:20Z</time>
      </trkpt>
      <trkpt lat="48.93226" lon="2.10798">
        <ele>49.62</ele>
        <time>2022-11-24T09:35:34Z</time>
      </trkpt>
      <trkpt lat="48.93221" lon="2.10816">
        <ele>49.66</ele>
        <time>2022-11-24T09:35:47Z</time>
      </trkpt>
      <trkpt lat="48.93216" lon="2.10839">
        <ele>49.21</ele>
        <time>2022-11-24T09:36:02Z</time>
      </trkpt>
      <trkpt lat="48.93207" lon="2.10862">
        <ele>48.97</ele>
        <time>2022-11-24T09:36:16Z</time>
      </trkpt>
      <trkpt lat="48.93197" lon="2.10891">
        <ele>49.13</ele>
        <time>2022-11-24T09:36:32Z</time>
      </trkpt>
      <trkpt lat="48.93184" lon="2.10916">
        <ele>48.34</ele>
        <time>2022-11-24T09:36:44Z</time>
      </trkpt>
      <trkpt lat="48.93177" lon="2.10931">
        <ele>47.94</ele>
        <time>2022-11-24T09:36:53Z</time>
      </trkpt>
      <trkpt lat="48.93167" lon="2.10952">
        <ele>48.69</ele>
        <time>2022-11-24T09:37:09Z</time>
      </trkpt>
      <trkpt lat="48.93152" lon="2.10978">
        <ele>47.92</ele>
        <time>2022-11-24T09:37:27Z</time>
      </trkpt>
      <trkpt lat="48.93146" lon="2.11001">
        <ele>47.92</ele>
        <time>2022-11-24T09:37:42Z</time>
      </trkpt>
      <trkpt lat="48.93135" lon="2.11032">
        <ele>48.11</ele>
        <time>2022-11-24T09:37:59Z</time>
      </trkpt>
      <trkpt lat="48.9313" lon="2.11062">
        <ele>48.19</ele>
        <time>2022-11-24T09:38:14Z</time>
      </trkpt>
      <trkpt lat="48.93127" lon="2.11077">
        <ele>48.35</ele>
        <time>2022-11-24T09:38:24Z</time>
      </trkpt>
      <trkpt lat="48.93124" lon="2.11093">
        <ele>48.4</ele>
        <time>2022-11-24T09:38:33Z</time>
      </trkpt>
      <trkpt lat="48.93121" lon="2.11129">
        <ele>48.21</ele>
        <time>2022-11-24T09:38:50Z</time>
      </trkpt>
      <trkpt lat="48.93118" lon="2.11146">
        <ele>48.43</ele>
        <time>2022-11-24T09:38:59Z</time>
      </trkpt>
      <trkpt lat="48.93113" lon="2.11168">
        <ele>48.38</ele>
        <time>2022-11-24T09:39:16Z</time>
      </trkpt>
      <trkpt lat="48.93112" lon="2.11176">
        <ele>48.69</ele>
        <time>2022-11-24T09:39:19Z</time>
      </trkpt>
      <trkpt lat="48.93106" lon="2.11197">
        <ele>48.5</ele>
        <time>2022-11-24T09:39:29Z</time>
      </trkpt>
      <trkpt lat="48.93104" lon="2.11207">
        <ele>48.63</ele>
        <time>2022-11-24T09:39:35Z</time>
      </trkpt>
      <trkpt lat="48.93101" lon="2.1122">
        <ele>48.2</ele>
        <time>2022-11-24T09:39:39Z</time>
      </trkpt>
      <trkpt lat="48.93098" lon="2.11237">
        <ele>49.45</ele>
        <time>2022-11-24T09:39:46Z</time>
      </trkpt>
      <trkpt lat="48.93098" lon="2.1125">
        <ele>49.29</ele>
        <time>2022-11-24T09:39:51Z</time>
      </trkpt>
      <trkpt lat="48.93096" lon="2.11268">
        <ele>48.73</ele>
        <time>2022-11-24T09:40:03Z</time>
      </trkpt>
      <trkpt lat="48.93093" lon="2.1128">
        <ele>48.88</ele>
        <time>2022-11-24T09:40:20Z</time>
      </trkpt>
      <trkpt lat="48.93094" lon="2.11281">
        <ele>48.66</ele>
        <time>2022-11-24T09:40:35Z</time>
      </trkpt>
      <trkpt lat="48.93088" lon="2.11287">
        <ele>48.28</ele>
        <time>2022-11-24T09:40:51Z</time>
      </trkpt>
      <trkpt lat="48.93077" lon="2.11281">
        <ele>48.38</ele>
        <time>2022-11-24T09:41:03Z</time>
      </trkpt>
      <trkpt lat="48.93067" lon="2.11271">
        <ele>48.65</ele>
        <time>2022-11-24T09:41:13Z</time>
      </trkpt>
      <trkpt lat="48.93057" lon="2.11262">
        <ele>48.49</ele>
        <time>2022-11-24T09:41:22Z</time>
      </trkpt>
      <trkpt lat="48.93044" lon="2.11247">
        <ele>47.87</ele>
        <time>2022-11-24T09:41:34Z</time>
      </trkpt>
      <trkpt lat="48.93031" lon="2.11237">
        <ele>48.06</ele>
        <time>2022-11-24T09:41:43Z</time>
      </trkpt>
      <trkpt lat="48.9302" lon="2.1123">
        <ele>47.53</ele>
        <time>2022-11-24T09:41:52Z</time>
      </trkpt>
      <trkpt lat="48.93011" lon="2.11221">
        <ele>47.75</ele>
        <time>2022-11-24T09:42:04Z</time>
      </trkpt>
      <trkpt lat="48.93007" lon="2.11218">
        <ele>47.93</ele>
        <time>2022-11-24T09:42:07Z</time>
      </trkpt>
      <trkpt lat="48.92989" lon="2.11208">
        <ele>46.85</ele>
        <time>2022-11-24T09:42:24Z</time>
      </trkpt>
      <trkpt lat="48.92972" lon="2.11196">
        <ele>46.5</ele>
        <time>2022-11-24T09:42:38Z</time>
      </trkpt>
      <trkpt lat="48.9296" lon="2.11189">
        <ele>45.62</ele>
        <time>2022-11-24T09:42:49Z</time>
      </trkpt>
      <trkpt lat="48.9295" lon="2.11183">
        <ele>45.15</ele>
        <time>2022-11-24T09:42:57Z</time>
      </trkpt>
      <trkpt lat="48.92937" lon="2.11173">
        <ele>43.93</ele>
        <time>2022-11-24T09:43:08Z</time>
      </trkpt>
      <trkpt lat="48.92924" lon="2.11165">
        <ele>43.82</ele>
        <time>2022-11-24T09:43:18Z</time>
      </trkpt>
      <trkpt lat="48.92918" lon="2.11157">
        <ele>43.36</ele>
        <time>2022-11-24T09:43:23Z</time>
      </trkpt>
      <trkpt lat="48.92906" lon="2.11147">
        <ele>43.37</ele>
        <time>2022-11-24T09:43:34Z</time>
      </trkpt>
      <trkpt lat="48.9289" lon="2.1114">
        <ele>43.32</ele>
        <time>2022-11-24T09:43:48Z</time>
      </trkpt>
      <trkpt lat="48.92885" lon="2.11137">
        <ele>42.62</ele>
        <time>2022-11-24T09:43:51Z</time>
      </trkpt>
      <trkpt lat="48.92882" lon="2.11134">
        <ele>42.46</ele>
        <time>2022-11-24T09:43:54Z</time>
      </trkpt>
      <trkpt lat="48.9287" lon="2.11118">
        <ele>41.68</ele>
        <time>2022-11-24T09:44:03Z</time>
      </trkpt>
      <trkpt lat="48.92859" lon="2.11107">
        <ele>42.79</ele>
        <time>2022-11-24T09:44:10Z</time>
      </trkpt>
      <trkpt lat="48.92845" lon="2.11094">
        <ele>43.36</ele>
        <time>2022-11-24T09:44:24Z</time>
      </trkpt>
      <trkpt lat="48.9283" lon="2.11079">
        <ele>44.3</ele>
        <time>2022-11-24T09:44:38Z</time>
      </trkpt>
      <trkpt lat="48.92814" lon="2.11068">
        <ele>45.32</ele>
        <time>2022-11-24T09:44:53Z</time>
      </trkpt>
      <trkpt lat="48.92799" lon="2.11054">
        <ele>45.67</ele>
        <time>2022-11-24T09:45:07Z</time>
      </trkpt>
      <trkpt lat="48.92779" lon="2.11035">
        <ele>45.45</ele>
        <time>2022-11-24T09:45:22Z</time>
      </trkpt>
      <trkpt lat="48.92758" lon="2.1102">
        <ele>45.22</ele>
        <time>2022-11-24T09:45:39Z</time>
      </trkpt>
      <trkpt lat="48.92739" lon="2.11008">
        <ele>45.59</ele>
        <time>2022-11-24T09:45:55Z</time>
      </trkpt>
      <trkpt lat="48.92721" lon="2.10994">
        <ele>45.53</ele>
        <time>2022-11-24T09:46:10Z</time>
      </trkpt>
      <trkpt lat="48.92704" lon="2.1098">
        <ele>45.53</ele>
        <time>2022-11-24T09:46:24Z</time>
      </trkpt>
      <trkpt lat="48.92688" lon="2.10966">
        <ele>45.31</ele>
        <time>2022-11-24T09:46:38Z</time>
      </trkpt>
      <trkpt lat="48.9267" lon="2.10953">
        <ele>44.73</ele>
        <time>2022-11-24T09:46:51Z</time>
      </trkpt>
      <trkpt lat="48.92651" lon="2.10935">
        <ele>44.82</ele>
        <time>2022-11-24T09:47:06Z</time>
      </trkpt>
      <trkpt lat="48.92642" lon="2.10924">
        <ele>44.48</ele>
        <time>2022-11-24T09:47:14Z</time>
      </trkpt>
      <trkpt lat="48.9264" lon="2.109">
        <ele>45.61</ele>
        <time>2022-11-24T09:47:27Z</time>
      </trkpt>
      <trkpt lat="48.92645" lon="2.10877">
        <ele>45.88</ele>
        <time>2022-11-24T09:47:43Z</time>
      </trkpt>
      <trkpt lat="48.92648" lon="2.1085">
        <ele>47.38</ele>
        <time>2022-11-24T09:48:01Z</time>
      </trkpt>
      <trkpt lat="48.92646" lon="2.10825">
        <ele>48.4</ele>
        <time>2022-11-24T09:48:13Z</time>
      </trkpt>
      <trkpt lat="48.92647" lon="2.10823">
        <ele>48.34</ele>
        <time>2022-11-24T09:48:14Z</time>
      </trkpt>
      <trkpt lat="48.92648" lon="2.10807">
        <ele>48.57</ele>
        <time>2022-11-24T09:48:21Z</time>
      </trkpt>
      <trkpt lat="48.92647" lon="2.10768">
        <ele>48.92</ele>
        <time>2022-11-24T09:48:38Z</time>
      </trkpt>
      <trkpt lat="48.92647" lon="2.10745">
        <ele>49.15</ele>
        <time>2022-11-24T09:48:51Z</time>
      </trkpt>
      <trkpt lat="48.92648" lon="2.10741">
        <ele>49.54</ele>
        <time>2022-11-24T09:48:53Z</time>
      </trkpt>
      <trkpt lat="48.92652" lon="2.10719">
        <ele>48.48</ele>
        <time>2022-11-24T09:49:05Z</time>
      </trkpt>
      <trkpt lat="48.92652" lon="2.10697">
        <ele>48.25</ele>
        <time>2022-11-24T09:49:15Z</time>
      </trkpt>
      <trkpt lat="48.92653" lon="2.10678">
        <ele>48.13</ele>
        <time>2022-11-24T09:49:24Z</time>
      </trkpt>
      <trkpt lat="48.92653" lon="2.10657">
        <ele>47.97</ele>
        <time>2022-11-24T09:49:33Z</time>
      </trkpt>
      <trkpt lat="48.92656" lon="2.10634">
        <ele>48.13</ele>
        <time>2022-11-24T09:49:45Z</time>
      </trkpt>
      <trkpt lat="48.92657" lon="2.10621">
        <ele>48.18</ele>
        <time>2022-11-24T09:49:54Z</time>
      </trkpt>
      <trkpt lat="48.92656" lon="2.10603">
        <ele>47.99</ele>
        <time>2022-11-24T09:50:04Z</time>
      </trkpt>
      <trkpt lat="48.92657" lon="2.10574">
        <ele>47.89</ele>
        <time>2022-11-24T09:50:17Z</time>
      </trkpt>
      <trkpt lat="48.92656" lon="2.10559">
        <ele>47.7</ele>
        <time>2022-11-24T09:50:26Z</time>
      </trkpt>
      <trkpt lat="48.92656" lon="2.10554">
        <ele>47.92</ele>
        <time>2022-11-24T09:50:28Z</time>
      </trkpt>
      <trkpt lat="48.92657" lon="2.10532">
        <ele>47.06</ele>
        <time>2022-11-24T09:50:39Z</time>
      </trkpt>
      <trkpt lat="48.92658" lon="2.10519">
        <ele>47.28</ele>
        <time>2022-11-24T09:50:46Z</time>
      </trkpt>
      <trkpt lat="48.92661" lon="2.10503">
        <ele>46.83</ele>
        <time>2022-11-24T09:50:54Z</time>
      </trkpt>
      <trkpt lat="48.92662" lon="2.10498">
        <ele>46.9</ele>
        <time>2022-11-24T09:50:56Z</time>
      </trkpt>
      <trkpt lat="48.92662" lon="2.10494">
        <ele>46.94</ele>
        <time>2022-11-24T09:50:59Z</time>
      </trkpt>
      <trkpt lat="48.92662" lon="2.10487">
        <ele>46.81</ele>
        <time>2022-11-24T09:51:03Z</time>
      </trkpt>
      <trkpt lat="48.9266" lon="2.10471">
        <ele>46.53</ele>
        <time>2022-11-24T09:51:10Z</time>
      </trkpt>
      <trkpt lat="48.92661" lon="2.10455">
        <ele>46.44</ele>
        <time>2022-11-24T09:51:22Z</time>
      </trkpt>
      <trkpt lat="48.9266" lon="2.10451">
        <ele>46.2</ele>
        <time>2022-11-24T09:51:31Z</time>
      </trkpt>
      <trkpt lat="48.92656" lon="2.10446">
        <ele>45.48</ele>
        <time>2022-11-24T09:51:49Z</time>
      </trkpt>
      <trkpt lat="48.92653" lon="2.10443">
        <ele>45.39</ele>
        <time>2022-11-24T09:52:01Z</time>
      </trkpt>
      <trkpt lat="48.92647" lon="2.1044">
        <ele>45.05</ele>
        <time>2022-11-24T09:52:14Z</time>
      </trkpt>
      <trkpt lat="48.92629" lon="2.10429">
        <ele>45.58</ele>
        <time>2022-11-24T09:52:32Z</time>
      </trkpt>
      <trkpt lat="48.92627" lon="2.10429">
        <ele>45.34</ele>
        <time>2022-11-24T09:52:34Z</time>
      </trkpt>
      <trkpt lat="48.92611" lon="2.10419">
        <ele>44.62</ele>
        <time>2022-11-24T09:52:46Z</time>
      </trkpt>
      <trkpt lat="48.92607" lon="2.10417">
        <ele>44.58</ele>
        <time>2022-11-24T09:52:49Z</time>
      </trkpt>
      <trkpt lat="48.92596" lon="2.1042">
        <ele>44.4</ele>
        <time>2022-11-24T09:52:59Z</time>
      </trkpt>
      <trkpt lat="48.92574" lon="2.10416">
        <ele>44.1</ele>
        <time>2022-11-24T09:53:11Z</time>
      </trkpt>
      <trkpt lat="48.92561" lon="2.10415">
        <ele>44.44</ele>
        <time>2022-11-24T09:53:23Z</time>
      </trkpt>
      <trkpt lat="48.92543" lon="2.10414">
        <ele>43.91</ele>
        <time>2022-11-24T09:53:37Z</time>
      </trkpt>
      <trkpt lat="48.92537" lon="2.10414">
        <ele>44</ele>
        <time>2022-11-24T09:53:43Z</time>
      </trkpt>
      <trkpt lat="48.92532" lon="2.10414">
        <ele>44.51</ele>
        <time>2022-11-24T09:53:48Z</time>
      </trkpt>
      <trkpt lat="48.92514" lon="2.10407">
        <ele>44.55</ele>
        <time>2022-11-24T09:54:01Z</time>
      </trkpt>
      <trkpt lat="48.92497" lon="2.10405">
        <ele>44.32</ele>
        <time>2022-11-24T09:54:12Z</time>
      </trkpt>
      <trkpt lat="48.92494" lon="2.10405">
        <ele>44.22</ele>
        <time>2022-11-24T09:54:14Z</time>
      </trkpt>
      <trkpt lat="48.92492" lon="2.10405">
        <ele>44.42</ele>
        <time>2022-11-24T09:54:16Z</time>
      </trkpt>
      <trkpt lat="48.92479" lon="2.10403">
        <ele>44.69</ele>
        <time>2022-11-24T09:54:27Z</time>
      </trkpt>
      <trkpt lat="48.92463" lon="2.10394">
        <ele>44.65</ele>
        <time>2022-11-24T09:54:41Z</time>
      </trkpt>
      <trkpt lat="48.92445" lon="2.10391">
        <ele>45.62</ele>
        <time>2022-11-24T09:54:55Z</time>
      </trkpt>
      <trkpt lat="48.92437" lon="2.10386">
        <ele>45.21</ele>
        <time>2022-11-24T09:55:01Z</time>
      </trkpt>
      <trkpt lat="48.92429" lon="2.10375">
        <ele>45.11</ele>
        <time>2022-11-24T09:55:11Z</time>
      </trkpt>
      <trkpt lat="48.92425" lon="2.10371">
        <ele>45.52</ele>
        <time>2022-11-24T09:55:15Z</time>
      </trkpt>
      <trkpt lat="48.92417" lon="2.1035">
        <ele>45.18</ele>
        <time>2022-11-24T09:55:27Z</time>
      </trkpt>
      <trkpt lat="48.92415" lon="2.10346">
        <ele>45.32</ele>
        <time>2022-11-24T09:55:29Z</time>
      </trkpt>
      <trkpt lat="48.9241" lon="2.10333">
        <ele>45.64</ele>
        <time>2022-11-24T09:55:34Z</time>
      </trkpt>
      <trkpt lat="48.92405" lon="2.10319">
        <ele>45.6</ele>
        <time>2022-11-24T09:55:40Z</time>
      </trkpt>
      <trkpt lat="48.92399" lon="2.1031">
        <ele>45.94</ele>
        <time>2022-11-24T09:55:45Z</time>
      </trkpt>
      <trkpt lat="48.92387" lon="2.10301">
        <ele>45.96</ele>
        <time>2022-11-24T09:55:53Z</time>
      </trkpt>
      <trkpt lat="48.92383" lon="2.10301">
        <ele>46.16</ele>
        <time>2022-11-24T09:55:56Z</time>
      </trkpt>
      <trkpt lat="48.92381" lon="2.10302">
        <ele>46.15</ele>
        <time>2022-11-24T09:55:57Z</time>
      </trkpt>
      <trkpt lat="48.9238" lon="2.10303">
        <ele>46.13</ele>
        <time>2022-11-24T09:55:58Z</time>
      </trkpt>
      <trkpt lat="48.92369" lon="2.10315">
        <ele>45.44</ele>
        <time>2022-11-24T09:56:07Z</time>
      </trkpt>
      <trkpt lat="48.92367" lon="2.10317">
        <ele>45.22</ele>
        <time>2022-11-24T09:56:08Z</time>
      </trkpt>
      <trkpt lat="48.92366" lon="2.10318">
        <ele>45.03</ele>
        <time>2022-11-24T09:56:09Z</time>
      </trkpt>
      <trkpt lat="48.92365" lon="2.10319">
        <ele>45.74</ele>
        <time>2022-11-24T09:56:10Z</time>
      </trkpt>
      <trkpt lat="48.92364" lon="2.1032">
        <ele>45.89</ele>
        <time>2022-11-24T09:56:11Z</time>
      </trkpt>
      <trkpt lat="48.92362" lon="2.1032">
        <ele>45.86</ele>
        <time>2022-11-24T09:56:12Z</time>
      </trkpt>
      <trkpt lat="48.92361" lon="2.1032">
        <ele>45.85</ele>
        <time>2022-11-24T09:56:13Z</time>
      </trkpt>
      <trkpt lat="48.9236" lon="2.10321">
        <ele>45.6</ele>
        <time>2022-11-24T09:56:14Z</time>
      </trkpt>
      <trkpt lat="48.92348" lon="2.10322">
        <ele>46.27</ele>
        <time>2022-11-24T09:56:25Z</time>
      </trkpt>
      <trkpt lat="48.9234" lon="2.10321">
        <ele>46.23</ele>
        <time>2022-11-24T09:56:31Z</time>
      </trkpt>
      <trkpt lat="48.92339" lon="2.10321">
        <ele>46.75</ele>
        <time>2022-11-24T09:56:32Z</time>
      </trkpt>
      <trkpt lat="48.92336" lon="2.1032">
        <ele>46.43</ele>
        <time>2022-11-24T09:56:35Z</time>
      </trkpt>
      <trkpt lat="48.92333" lon="2.10319">
        <ele>46.07</ele>
        <time>2022-11-24T09:56:37Z</time>
      </trkpt>
      <trkpt lat="48.92332" lon="2.10319">
        <ele>46.72</ele>
        <time>2022-11-24T09:56:38Z</time>
      </trkpt>
      <trkpt lat="48.92328" lon="2.10316">
        <ele>46.68</ele>
        <time>2022-11-24T09:56:42Z</time>
      </trkpt>
      <trkpt lat="48.92323" lon="2.10315">
        <ele>46.68</ele>
        <time>2022-11-24T09:56:45Z</time>
      </trkpt>
      <trkpt lat="48.9232" lon="2.10313">
        <ele>46.83</ele>
        <time>2022-11-24T09:56:47Z</time>
      </trkpt>
      <trkpt lat="48.92319" lon="2.10313">
        <ele>46.96</ele>
        <time>2022-11-24T09:56:48Z</time>
      </trkpt>
      <trkpt lat="48.92317" lon="2.10312">
        <ele>46.57</ele>
        <time>2022-11-24T09:56:49Z</time>
      </trkpt>
      <trkpt lat="48.92316" lon="2.10311">
        <ele>46.67</ele>
        <time>2022-11-24T09:56:50Z</time>
      </trkpt>
      <trkpt lat="48.92314" lon="2.10311">
        <ele>46.57</ele>
        <time>2022-11-24T09:56:51Z</time>
      </trkpt>
      <trkpt lat="48.92312" lon="2.1031">
        <ele>46.64</ele>
        <time>2022-11-24T09:56:52Z</time>
      </trkpt>
      <trkpt lat="48.92311" lon="2.10309">
        <ele>46.28</ele>
        <time>2022-11-24T09:56:53Z</time>
      </trkpt>
      <trkpt lat="48.92299" lon="2.10306">
        <ele>46.43</ele>
        <time>2022-11-24T09:57:03Z</time>
      </trkpt>
      <trkpt lat="48.92281" lon="2.10299">
        <ele>46.63</ele>
        <time>2022-11-24T09:57:16Z</time>
      </trkpt>
      <trkpt lat="48.92259" lon="2.10291">
        <ele>47.32</ele>
        <time>2022-11-24T09:57:32Z</time>
      </trkpt>
      <trkpt lat="48.92246" lon="2.10284">
        <ele>46.94</ele>
        <time>2022-11-24T09:57:43Z</time>
      </trkpt>
      <trkpt lat="48.92237" lon="2.10279">
        <ele>46.57</ele>
        <time>2022-11-24T09:57:51Z</time>
      </trkpt>
      <trkpt lat="48.92236" lon="2.10278">
        <ele>47.22</ele>
        <time>2022-11-24T09:57:52Z</time>
      </trkpt>
      <trkpt lat="48.9223" lon="2.10277">
        <ele>45.9</ele>
        <time>2022-11-24T09:57:56Z</time>
      </trkpt>
      <trkpt lat="48.92227" lon="2.10275">
        <ele>46.62</ele>
        <time>2022-11-24T09:57:58Z</time>
      </trkpt>
      <trkpt lat="48.92225" lon="2.10275">
        <ele>46.65</ele>
        <time>2022-11-24T09:57:59Z</time>
      </trkpt>
      <trkpt lat="48.92224" lon="2.10274">
        <ele>46.49</ele>
        <time>2022-11-24T09:58:00Z</time>
      </trkpt>
      <trkpt lat="48.92223" lon="2.10273">
        <ele>46.68</ele>
        <time>2022-11-24T09:58:01Z</time>
      </trkpt>
      <trkpt lat="48.92221" lon="2.10273">
        <ele>46.65</ele>
        <time>2022-11-24T09:58:02Z</time>
      </trkpt>
      <trkpt lat="48.9222" lon="2.10272">
        <ele>46.96</ele>
        <time>2022-11-24T09:58:03Z</time>
      </trkpt>
      <trkpt lat="48.92213" lon="2.10271">
        <ele>46.63</ele>
        <time>2022-11-24T09:58:08Z</time>
      </trkpt>
      <trkpt lat="48.92204" lon="2.10271">
        <ele>46.56</ele>
        <time>2022-11-24T09:58:15Z</time>
      </trkpt>
      <trkpt lat="48.92203" lon="2.1027">
        <ele>46.16</ele>
        <time>2022-11-24T09:58:16Z</time>
      </trkpt>
      <trkpt lat="48.92197" lon="2.10269">
        <ele>46.36</ele>
        <time>2022-11-24T09:58:20Z</time>
      </trkpt>
      <trkpt lat="48.92196" lon="2.10268">
        <ele>46.6</ele>
        <time>2022-11-24T09:58:21Z</time>
      </trkpt>
      <trkpt lat="48.92195" lon="2.10267">
        <ele>46.86</ele>
        <time>2022-11-24T09:58:22Z</time>
      </trkpt>
      <trkpt lat="48.92193" lon="2.10267">
        <ele>46.83</ele>
        <time>2022-11-24T09:58:23Z</time>
      </trkpt>
      <trkpt lat="48.9219" lon="2.10265">
        <ele>46.98</ele>
        <time>2022-11-24T09:58:26Z</time>
      </trkpt>
      <trkpt lat="48.92188" lon="2.10265">
        <ele>46.35</ele>
        <time>2022-11-24T09:58:27Z</time>
      </trkpt>
      <trkpt lat="48.92187" lon="2.10264">
        <ele>46.28</ele>
        <time>2022-11-24T09:58:28Z</time>
      </trkpt>
      <trkpt lat="48.92175" lon="2.1026">
        <ele>47</ele>
        <time>2022-11-24T09:58:39Z</time>
      </trkpt>
      <trkpt lat="48.92159" lon="2.10249">
        <ele>46.4</ele>
        <time>2022-11-24T09:58:53Z</time>
      </trkpt>
      <trkpt lat="48.9214" lon="2.10245">
        <ele>44.75</ele>
        <time>2022-11-24T09:59:07Z</time>
      </trkpt>
      <trkpt lat="48.9212" lon="2.10239">
        <ele>45.44</ele>
        <time>2022-11-24T09:59:22Z</time>
      </trkpt>
      <trkpt lat="48.92104" lon="2.10237">
        <ele>44.97</ele>
        <time>2022-11-24T09:59:34Z</time>
      </trkpt>
      <trkpt lat="48.92102" lon="2.10236">
        <ele>44.79</ele>
        <time>2022-11-24T09:59:36Z</time>
      </trkpt>
      <trkpt lat="48.921" lon="2.10235">
        <ele>44.64</ele>
        <time>2022-11-24T09:59:37Z</time>
      </trkpt>
      <trkpt lat="48.92099" lon="2.10234">
        <ele>44.64</ele>
        <time>2022-11-24T09:59:38Z</time>
      </trkpt>
      <trkpt lat="48.92097" lon="2.10233">
        <ele>44.93</ele>
        <time>2022-11-24T09:59:39Z</time>
      </trkpt>
      <trkpt lat="48.92096" lon="2.10233">
        <ele>44.23</ele>
        <time>2022-11-24T09:59:40Z</time>
      </trkpt>
      <trkpt lat="48.92094" lon="2.10233">
        <ele>44.2</ele>
        <time>2022-11-24T09:59:41Z</time>
      </trkpt>
      <trkpt lat="48.92084" lon="2.10229">
        <ele>44.27</ele>
        <time>2022-11-24T09:59:51Z</time>
      </trkpt>
      <trkpt lat="48.92065" lon="2.10221">
        <ele>41.84</ele>
        <time>2022-11-24T10:00:05Z</time>
      </trkpt>
      <trkpt lat="48.92049" lon="2.10219">
        <ele>40.26</ele>
        <time>2022-11-24T10:00:16Z</time>
      </trkpt>
      <trkpt lat="48.9203" lon="2.10207">
        <ele>38.8</ele>
        <time>2022-11-24T10:00:32Z</time>
      </trkpt>
      <trkpt lat="48.92023" lon="2.10205">
        <ele>38.58</ele>
        <time>2022-11-24T10:00:37Z</time>
      </trkpt>
      <trkpt lat="48.92019" lon="2.10204">
        <ele>38.08</ele>
        <time>2022-11-24T10:00:40Z</time>
      </trkpt>
      <trkpt lat="48.92018" lon="2.10203">
        <ele>38.2</ele>
        <time>2022-11-24T10:00:41Z</time>
      </trkpt>
      <trkpt lat="48.92016" lon="2.10203">
        <ele>37.75</ele>
        <time>2022-11-24T10:00:42Z</time>
      </trkpt>
      <trkpt lat="48.92015" lon="2.10203">
        <ele>37.73</ele>
        <time>2022-11-24T10:00:43Z</time>
      </trkpt>
      <trkpt lat="48.92013" lon="2.10202">
        <ele>37.85</ele>
        <time>2022-11-24T10:00:44Z</time>
      </trkpt>
      <trkpt lat="48.92005" lon="2.102">
        <ele>37.39</ele>
        <time>2022-11-24T10:00:50Z</time>
      </trkpt>
      <trkpt lat="48.91999" lon="2.10196">
        <ele>36.9</ele>
        <time>2022-11-24T10:00:55Z</time>
      </trkpt>
      <trkpt lat="48.91998" lon="2.10195">
        <ele>37.12</ele>
        <time>2022-11-24T10:00:56Z</time>
      </trkpt>
      <trkpt lat="48.91997" lon="2.10195">
        <ele>36.96</ele>
        <time>2022-11-24T10:00:57Z</time>
      </trkpt>
      <trkpt lat="48.91992" lon="2.10191">
        <ele>36.45</ele>
        <time>2022-11-24T10:01:01Z</time>
      </trkpt>
      <trkpt lat="48.9199" lon="2.10191">
        <ele>35.9</ele>
        <time>2022-11-24T10:01:02Z</time>
      </trkpt>
      <trkpt lat="48.91989" lon="2.10191">
        <ele>36.31</ele>
        <time>2022-11-24T10:01:03Z</time>
      </trkpt>
      <trkpt lat="48.91973" lon="2.1019">
        <ele>35.68</ele>
        <time>2022-11-24T10:01:13Z</time>
      </trkpt>
      <trkpt lat="48.91972" lon="2.10189">
        <ele>35.51</ele>
        <time>2022-11-24T10:01:14Z</time>
      </trkpt>
      <trkpt lat="48.91969" lon="2.10188">
        <ele>35.79</ele>
        <time>2022-11-24T10:01:16Z</time>
      </trkpt>
      <trkpt lat="48.91967" lon="2.10188">
        <ele>35.76</ele>
        <time>2022-11-24T10:01:17Z</time>
      </trkpt>
      <trkpt lat="48.91966" lon="2.10187">
        <ele>35.45</ele>
        <time>2022-11-24T10:01:18Z</time>
      </trkpt>
      <trkpt lat="48.91964" lon="2.10187">
        <ele>35.74</ele>
        <time>2022-11-24T10:01:19Z</time>
      </trkpt>
      <trkpt lat="48.91963" lon="2.10187">
        <ele>35.36</ele>
        <time>2022-11-24T10:01:20Z</time>
      </trkpt>
      <trkpt lat="48.91961" lon="2.10186">
        <ele>35.64</ele>
        <time>2022-11-24T10:01:21Z</time>
      </trkpt>
      <trkpt lat="48.91953" lon="2.10184">
        <ele>35.11</ele>
        <time>2022-11-24T10:01:26Z</time>
      </trkpt>
      <trkpt lat="48.91951" lon="2.10183">
        <ele>34.45</ele>
        <time>2022-11-24T10:01:27Z</time>
      </trkpt>
      <trkpt lat="48.91949" lon="2.10183">
        <ele>35</ele>
        <time>2022-11-24T10:01:28Z</time>
      </trkpt>
      <trkpt lat="48.91947" lon="2.10183">
        <ele>34.73</ele>
        <time>2022-11-24T10:01:29Z</time>
      </trkpt>
      <trkpt lat="48.91946" lon="2.10182">
        <ele>35.08</ele>
        <time>2022-11-24T10:01:30Z</time>
      </trkpt>
      <trkpt lat="48.91945" lon="2.10181">
        <ele>34.93</ele>
        <time>2022-11-24T10:01:31Z</time>
      </trkpt>
      <trkpt lat="48.91943" lon="2.10179">
        <ele>34.83</ele>
        <time>2022-11-24T10:01:32Z</time>
      </trkpt>
      <trkpt lat="48.91942" lon="2.10178">
        <ele>35.37</ele>
        <time>2022-11-24T10:01:33Z</time>
      </trkpt>
      <trkpt lat="48.9194" lon="2.10178">
        <ele>35.42</ele>
        <time>2022-11-24T10:01:34Z</time>
      </trkpt>
      <trkpt lat="48.91939" lon="2.10178">
        <ele>34.91</ele>
        <time>2022-11-24T10:01:35Z</time>
      </trkpt>
      <trkpt lat="48.91937" lon="2.10178">
        <ele>34.49</ele>
        <time>2022-11-24T10:01:36Z</time>
      </trkpt>
      <trkpt lat="48.91936" lon="2.10178">
        <ele>34.3</ele>
        <time>2022-11-24T10:01:37Z</time>
      </trkpt>
      <trkpt lat="48.91935" lon="2.10178">
        <ele>34.44</ele>
        <time>2022-11-24T10:01:38Z</time>
      </trkpt>
      <trkpt lat="48.91934" lon="2.10178">
        <ele>34.32</ele>
        <time>2022-11-24T10:01:39Z</time>
      </trkpt>
      <trkpt lat="48.91933" lon="2.10178">
        <ele>34.16</ele>
        <time>2022-11-24T10:01:40Z</time>
      </trkpt>
      <trkpt lat="48.91932" lon="2.10177">
        <ele>33.76</ele>
        <time>2022-11-24T10:01:41Z</time>
      </trkpt>
      <trkpt lat="48.91931" lon="2.10178">
        <ele>34.64</ele>
        <time>2022-11-24T10:01:42Z</time>
      </trkpt>
      <trkpt lat="48.9193" lon="2.10177">
        <ele>34.41</ele>
        <time>2022-11-24T10:01:52Z</time>
      </trkpt>
      <trkpt lat="48.91921" lon="2.1017">
        <ele>34.3</ele>
        <time>2022-11-24T10:02:05Z</time>
      </trkpt>
      <trkpt lat="48.91912" lon="2.10166">
        <ele>34.14</ele>
        <time>2022-11-24T10:02:15Z</time>
      </trkpt>
      <trkpt lat="48.9191" lon="2.10165">
        <ele>33.78</ele>
        <time>2022-11-24T10:02:17Z</time>
      </trkpt>
      <trkpt lat="48.91909" lon="2.10164">
        <ele>33.86</ele>
        <time>2022-11-24T10:02:18Z</time>
      </trkpt>
      <trkpt lat="48.91907" lon="2.10163">
        <ele>33.68</ele>
        <time>2022-11-24T10:02:19Z</time>
      </trkpt>
      <trkpt lat="48.91906" lon="2.10163">
        <ele>33.48</ele>
        <time>2022-11-24T10:02:20Z</time>
      </trkpt>
      <trkpt lat="48.91904" lon="2.10162">
        <ele>33.81</ele>
        <time>2022-11-24T10:02:21Z</time>
      </trkpt>
      <trkpt lat="48.91903" lon="2.10162">
        <ele>33.86</ele>
        <time>2022-11-24T10:02:22Z</time>
      </trkpt>
      <trkpt lat="48.91901" lon="2.10161">
        <ele>33.4</ele>
        <time>2022-11-24T10:02:23Z</time>
      </trkpt>
      <trkpt lat="48.9189" lon="2.10161">
        <ele>33.17</ele>
        <time>2022-11-24T10:02:33Z</time>
      </trkpt>
      <trkpt lat="48.91881" lon="2.10159">
        <ele>32.91</ele>
        <time>2022-11-24T10:02:43Z</time>
      </trkpt>
      <trkpt lat="48.91863" lon="2.10153">
        <ele>32.39</ele>
        <time>2022-11-24T10:02:57Z</time>
      </trkpt>
      <trkpt lat="48.91862" lon="2.10153">
        <ele>32.39</ele>
        <time>2022-11-24T10:02:58Z</time>
      </trkpt>
      <trkpt lat="48.9186" lon="2.10152">
        <ele>32.36</ele>
        <time>2022-11-24T10:02:59Z</time>
      </trkpt>
      <trkpt lat="48.91858" lon="2.10152">
        <ele>32.05</ele>
        <time>2022-11-24T10:03:00Z</time>
      </trkpt>
      <trkpt lat="48.91857" lon="2.10151">
        <ele>32.2</ele>
        <time>2022-11-24T10:03:01Z</time>
      </trkpt>
      <trkpt lat="48.91841" lon="2.10145">
        <ele>31.37</ele>
        <time>2022-11-24T10:03:13Z</time>
      </trkpt>
      <trkpt lat="48.91828" lon="2.1014">
        <ele>30.4</ele>
        <time>2022-11-24T10:03:23Z</time>
      </trkpt>
      <trkpt lat="48.91827" lon="2.10138">
        <ele>30.35</ele>
        <time>2022-11-24T10:03:24Z</time>
      </trkpt>
      <trkpt lat="48.91825" lon="2.10137">
        <ele>29.98</ele>
        <time>2022-11-24T10:03:25Z</time>
      </trkpt>
      <trkpt lat="48.91824" lon="2.10136">
        <ele>29.6</ele>
        <time>2022-11-24T10:03:26Z</time>
      </trkpt>
      <trkpt lat="48.91822" lon="2.10135">
        <ele>29.64</ele>
        <time>2022-11-24T10:03:27Z</time>
      </trkpt>
      <trkpt lat="48.91821" lon="2.10134">
        <ele>29.45</ele>
        <time>2022-11-24T10:03:28Z</time>
      </trkpt>
      <trkpt lat="48.91819" lon="2.10133">
        <ele>29.34</ele>
        <time>2022-11-24T10:03:29Z</time>
      </trkpt>
      <trkpt lat="48.91818" lon="2.10132">
        <ele>29.36</ele>
        <time>2022-11-24T10:03:30Z</time>
      </trkpt>
      <trkpt lat="48.91807" lon="2.10131">
        <ele>29.4</ele>
        <time>2022-11-24T10:03:39Z</time>
      </trkpt>
      <trkpt lat="48.91788" lon="2.10124">
        <ele>29.52</ele>
        <time>2022-11-24T10:03:53Z</time>
      </trkpt>
      <trkpt lat="48.91775" lon="2.10119">
        <ele>29.02</ele>
        <time>2022-11-24T10:04:02Z</time>
      </trkpt>
      <trkpt lat="48.91771" lon="2.10118">
        <ele>29</ele>
        <time>2022-11-24T10:04:05Z</time>
      </trkpt>
      <trkpt lat="48.91769" lon="2.10117">
        <ele>29.53</ele>
        <time>2022-11-24T10:04:06Z</time>
      </trkpt>
      <trkpt lat="48.91767" lon="2.10117">
        <ele>28.85</ele>
        <time>2022-11-24T10:04:07Z</time>
      </trkpt>
      <trkpt lat="48.91766" lon="2.10116">
        <ele>29.42</ele>
        <time>2022-11-24T10:04:08Z</time>
      </trkpt>
      <trkpt lat="48.91765" lon="2.10115">
        <ele>28.67</ele>
        <time>2022-11-24T10:04:09Z</time>
      </trkpt>
      <trkpt lat="48.91758" lon="2.10111">
        <ele>29.41</ele>
        <time>2022-11-24T10:04:14Z</time>
      </trkpt>
      <trkpt lat="48.91757" lon="2.10111">
        <ele>29.4</ele>
        <time>2022-11-24T10:04:15Z</time>
      </trkpt>
      <trkpt lat="48.91752" lon="2.1011">
        <ele>28.68</ele>
        <time>2022-11-24T10:04:19Z</time>
      </trkpt>
      <trkpt lat="48.9175" lon="2.10111">
        <ele>29.59</ele>
        <time>2022-11-24T10:04:20Z</time>
      </trkpt>
      <trkpt lat="48.91748" lon="2.10111">
        <ele>28.85</ele>
        <time>2022-11-24T10:04:21Z</time>
      </trkpt>
      <trkpt lat="48.91747" lon="2.10112">
        <ele>28.88</ele>
        <time>2022-11-24T10:04:22Z</time>
      </trkpt>
      <trkpt lat="48.91743" lon="2.10116">
        <ele>29.46</ele>
        <time>2022-11-24T10:04:26Z</time>
      </trkpt>
      <trkpt lat="48.91735" lon="2.10126">
        <ele>29.73</ele>
        <time>2022-11-24T10:04:35Z</time>
      </trkpt>
      <trkpt lat="48.91733" lon="2.10127">
        <ele>29.96</ele>
        <time>2022-11-24T10:04:36Z</time>
      </trkpt>
      <trkpt lat="48.91721" lon="2.10148">
        <ele>31.77</ele>
        <time>2022-11-24T10:04:50Z</time>
      </trkpt>
      <trkpt lat="48.9172" lon="2.1015">
        <ele>31.71</ele>
        <time>2022-11-24T10:04:51Z</time>
      </trkpt>
      <trkpt lat="48.91717" lon="2.10157">
        <ele>32.73</ele>
        <time>2022-11-24T10:04:56Z</time>
      </trkpt>
      <trkpt lat="48.9171" lon="2.10168">
        <ele>33.27</ele>
        <time>2022-11-24T10:05:04Z</time>
      </trkpt>
      <trkpt lat="48.91709" lon="2.1017">
        <ele>33.4</ele>
        <time>2022-11-24T10:05:05Z</time>
      </trkpt>
      <trkpt lat="48.91708" lon="2.10171">
        <ele>33.6</ele>
        <time>2022-11-24T10:05:06Z</time>
      </trkpt>
      <trkpt lat="48.91707" lon="2.10172">
        <ele>33.59</ele>
        <time>2022-11-24T10:05:07Z</time>
      </trkpt>
      <trkpt lat="48.91703" lon="2.10181">
        <ele>34.45</ele>
        <time>2022-11-24T10:05:16Z</time>
      </trkpt>
      <trkpt lat="48.91701" lon="2.10193">
        <ele>34.58</ele>
        <time>2022-11-24T10:05:28Z</time>
      </trkpt>
      <trkpt lat="48.91696" lon="2.10197">
        <ele>35.35</ele>
        <time>2022-11-24T10:05:40Z</time>
      </trkpt>
      <trkpt lat="48.9169" lon="2.10204">
        <ele>35.36</ele>
        <time>2022-11-24T10:05:49Z</time>
      </trkpt>
      <trkpt lat="48.91687" lon="2.10212">
        <ele>36.67</ele>
        <time>2022-11-24T10:06:00Z</time>
      </trkpt>
      <trkpt lat="48.91678" lon="2.10222">
        <ele>38.01</ele>
        <time>2022-11-24T10:06:12Z</time>
      </trkpt>
      <trkpt lat="48.91676" lon="2.10224">
        <ele>38.14</ele>
        <time>2022-11-24T10:06:13Z</time>
      </trkpt>
      <trkpt lat="48.91675" lon="2.10228">
        <ele>38.2</ele>
        <time>2022-11-24T10:06:15Z</time>
      </trkpt>
      <trkpt lat="48.91666" lon="2.10241">
        <ele>38.3</ele>
        <time>2022-11-24T10:06:24Z</time>
      </trkpt>
      <trkpt lat="48.91665" lon="2.10242">
        <ele>38.39</ele>
        <time>2022-11-24T10:06:25Z</time>
      </trkpt>
      <trkpt lat="48.9166" lon="2.10251">
        <ele>38.88</ele>
        <time>2022-11-24T10:06:32Z</time>
      </trkpt>
      <trkpt lat="48.91652" lon="2.10264">
        <ele>39.93</ele>
        <time>2022-11-24T10:06:44Z</time>
      </trkpt>
      <trkpt lat="48.91636" lon="2.10266">
        <ele>41.4</ele>
        <time>2022-11-24T10:06:59Z</time>
      </trkpt>
      <trkpt lat="48.91621" lon="2.10264">
        <ele>43.63</ele>
        <time>2022-11-24T10:07:11Z</time>
      </trkpt>
      <trkpt lat="48.9161" lon="2.10263">
        <ele>44.05</ele>
        <time>2022-11-24T10:07:24Z</time>
      </trkpt>
      <trkpt lat="48.91595" lon="2.10268">
        <ele>45.59</ele>
        <time>2022-11-24T10:07:38Z</time>
      </trkpt>
      <trkpt lat="48.91582" lon="2.10271">
        <ele>46.58</ele>
        <time>2022-11-24T10:07:51Z</time>
      </trkpt>
      <trkpt lat="48.91567" lon="2.10276">
        <ele>47.8</ele>
        <time>2022-11-24T10:08:03Z</time>
      </trkpt>
      <trkpt lat="48.91555" lon="2.10278">
        <ele>47.85</ele>
        <time>2022-11-24T10:08:12Z</time>
      </trkpt>
      <trkpt lat="48.91545" lon="2.10276">
        <ele>48.2</ele>
        <time>2022-11-24T10:08:21Z</time>
      </trkpt>
      <trkpt lat="48.91539" lon="2.10276">
        <ele>47.96</ele>
        <time>2022-11-24T10:08:24Z</time>
      </trkpt>
      <trkpt lat="48.91532" lon="2.10271">
        <ele>48.88</ele>
        <time>2022-11-24T10:08:30Z</time>
      </trkpt>
      <trkpt lat="48.91523" lon="2.10271">
        <ele>47.89</ele>
        <time>2022-11-24T10:08:37Z</time>
      </trkpt>
      <trkpt lat="48.91512" lon="2.10271">
        <ele>48.64</ele>
        <time>2022-11-24T10:08:44Z</time>
      </trkpt>
      <trkpt lat="48.9151" lon="2.10271">
        <ele>48.2</ele>
        <time>2022-11-24T10:08:46Z</time>
      </trkpt>
      <trkpt lat="48.91485" lon="2.1027">
        <ele>48.99</ele>
        <time>2022-11-24T10:09:03Z</time>
      </trkpt>
      <trkpt lat="48.9148" lon="2.10269">
        <ele>49.04</ele>
        <time>2022-11-24T10:09:07Z</time>
      </trkpt>
      <trkpt lat="48.91476" lon="2.10268">
        <ele>48.71</ele>
        <time>2022-11-24T10:09:10Z</time>
      </trkpt>
      <trkpt lat="48.91472" lon="2.1027">
        <ele>48.75</ele>
        <time>2022-11-24T10:09:13Z</time>
      </trkpt>
      <trkpt lat="48.91467" lon="2.10269">
        <ele>48.14</ele>
        <time>2022-11-24T10:09:16Z</time>
      </trkpt>
      <trkpt lat="48.91458" lon="2.10269">
        <ele>48.22</ele>
        <time>2022-11-24T10:09:24Z</time>
      </trkpt>
      <trkpt lat="48.9145" lon="2.10267">
        <ele>48.78</ele>
        <time>2022-11-24T10:09:30Z</time>
      </trkpt>
      <trkpt lat="48.91441" lon="2.10263">
        <ele>48.26</ele>
        <time>2022-11-24T10:09:36Z</time>
      </trkpt>
      <trkpt lat="48.91426" lon="2.10267">
        <ele>48.16</ele>
        <time>2022-11-24T10:09:46Z</time>
      </trkpt>
      <trkpt lat="48.91415" lon="2.10265">
        <ele>47.37</ele>
        <time>2022-11-24T10:09:54Z</time>
      </trkpt>
      <trkpt lat="48.91391" lon="2.10264">
        <ele>46.24</ele>
        <time>2022-11-24T10:10:10Z</time>
      </trkpt>
      <trkpt lat="48.91373" lon="2.10266">
        <ele>46.22</ele>
        <time>2022-11-24T10:10:23Z</time>
      </trkpt>
      <trkpt lat="48.91362" lon="2.10266">
        <ele>46.47</ele>
        <time>2022-11-24T10:10:30Z</time>
      </trkpt>
      <trkpt lat="48.91346" lon="2.10265">
        <ele>46</ele>
        <time>2022-11-24T10:10:42Z</time>
      </trkpt>
      <trkpt lat="48.91321" lon="2.10264">
        <ele>45.37</ele>
        <time>2022-11-24T10:10:59Z</time>
      </trkpt>
      <trkpt lat="48.91308" lon="2.10266">
        <ele>46.24</ele>
        <time>2022-11-24T10:11:11Z</time>
      </trkpt>
      <trkpt lat="48.91288" lon="2.10263">
        <ele>45.98</ele>
        <time>2022-11-24T10:11:26Z</time>
      </trkpt>
      <trkpt lat="48.91273" lon="2.1026">
        <ele>46.68</ele>
        <time>2022-11-24T10:11:37Z</time>
      </trkpt>
      <trkpt lat="48.91253" lon="2.10259">
        <ele>46.87</ele>
        <time>2022-11-24T10:11:52Z</time>
      </trkpt>
      <trkpt lat="48.91234" lon="2.10261">
        <ele>47.16</ele>
        <time>2022-11-24T10:12:06Z</time>
      </trkpt>
      <trkpt lat="48.91211" lon="2.10259">
        <ele>48.34</ele>
        <time>2022-11-24T10:12:23Z</time>
      </trkpt>
      <trkpt lat="48.91204" lon="2.10254">
        <ele>49.65</ele>
        <time>2022-11-24T10:12:35Z</time>
      </trkpt>
      <trkpt lat="48.912" lon="2.10251">
        <ele>49.7</ele>
        <time>2022-11-24T10:12:38Z</time>
      </trkpt>
      <trkpt lat="48.91193" lon="2.10245">
        <ele>49.68</ele>
        <time>2022-11-24T10:12:44Z</time>
      </trkpt>
      <trkpt lat="48.91185" lon="2.10238">
        <ele>49.85</ele>
        <time>2022-11-24T10:12:50Z</time>
      </trkpt>
      <trkpt lat="48.91173" lon="2.1023">
        <ele>50.43</ele>
        <time>2022-11-24T10:13:01Z</time>
      </trkpt>
      <trkpt lat="48.91167" lon="2.10226">
        <ele>50.75</ele>
        <time>2022-11-24T10:13:05Z</time>
      </trkpt>
      <trkpt lat="48.91157" lon="2.10214">
        <ele>51.11</ele>
        <time>2022-11-24T10:13:15Z</time>
      </trkpt>
      <trkpt lat="48.91146" lon="2.10204">
        <ele>51.38</ele>
        <time>2022-11-24T10:13:25Z</time>
      </trkpt>
      <trkpt lat="48.91142" lon="2.10204">
        <ele>51.42</ele>
        <time>2022-11-24T10:13:29Z</time>
      </trkpt>
      <trkpt lat="48.91137" lon="2.10201">
        <ele>50.9</ele>
        <time>2022-11-24T10:13:33Z</time>
      </trkpt>
      <trkpt lat="48.91122" lon="2.1019">
        <ele>50.76</ele>
        <time>2022-11-24T10:13:45Z</time>
      </trkpt>
      <trkpt lat="48.91115" lon="2.10189">
        <ele>51.17</ele>
        <time>2022-11-24T10:13:50Z</time>
      </trkpt>
      <trkpt lat="48.91112" lon="2.10188">
        <ele>51.28</ele>
        <time>2022-11-24T10:13:53Z</time>
      </trkpt>
      <trkpt lat="48.91104" lon="2.10185">
        <ele>50.97</ele>
        <time>2022-11-24T10:14:01Z</time>
      </trkpt>
      <trkpt lat="48.9109" lon="2.10175">
        <ele>51.6</ele>
        <time>2022-11-24T10:14:13Z</time>
      </trkpt>
      <trkpt lat="48.9109" lon="2.10173">
        <ele>51</ele>
        <time>2022-11-24T10:14:33Z</time>
      </trkpt>
      <trkpt lat="48.91088" lon="2.1017">
        <ele>51.3</ele>
        <time>2022-11-24T10:14:42Z</time>
      </trkpt>
      <trkpt lat="48.91081" lon="2.1017">
        <ele>51.14</ele>
        <time>2022-11-24T10:14:50Z</time>
      </trkpt>
      <trkpt lat="48.91065" lon="2.10174">
        <ele>50.64</ele>
        <time>2022-11-24T10:15:00Z</time>
      </trkpt>
      <trkpt lat="48.91063" lon="2.10175">
        <ele>50.84</ele>
        <time>2022-11-24T10:15:02Z</time>
      </trkpt>
      <trkpt lat="48.91048" lon="2.10179">
        <ele>51.43</ele>
        <time>2022-11-24T10:15:13Z</time>
      </trkpt>
      <trkpt lat="48.91033" lon="2.10181">
        <ele>50.66</ele>
        <time>2022-11-24T10:15:22Z</time>
      </trkpt>
      <trkpt lat="48.91027" lon="2.10182">
        <ele>50.88</ele>
        <time>2022-11-24T10:15:26Z</time>
      </trkpt>
      <trkpt lat="48.91021" lon="2.10182">
        <ele>50.76</ele>
        <time>2022-11-24T10:15:31Z</time>
      </trkpt>
      <trkpt lat="48.91007" lon="2.10176">
        <ele>51.14</ele>
        <time>2022-11-24T10:15:40Z</time>
      </trkpt>
      <trkpt lat="48.90988" lon="2.10174">
        <ele>51.2</ele>
        <time>2022-11-24T10:15:51Z</time>
      </trkpt>
      <trkpt lat="48.90975" lon="2.10172">
        <ele>51.23</ele>
        <time>2022-11-24T10:16:03Z</time>
      </trkpt>
      <trkpt lat="48.9097" lon="2.1017">
        <ele>50.76</ele>
        <time>2022-11-24T10:16:07Z</time>
      </trkpt>
      <trkpt lat="48.90959" lon="2.10167">
        <ele>50.45</ele>
        <time>2022-11-24T10:16:13Z</time>
      </trkpt>
      <trkpt lat="48.90949" lon="2.10163">
        <ele>50.21</ele>
        <time>2022-11-24T10:16:19Z</time>
      </trkpt>
      <trkpt lat="48.9094" lon="2.10159">
        <ele>50.61</ele>
        <time>2022-11-24T10:16:28Z</time>
      </trkpt>
      <trkpt lat="48.90933" lon="2.10155">
        <ele>50.2</ele>
        <time>2022-11-24T10:16:33Z</time>
      </trkpt>
      <trkpt lat="48.90925" lon="2.1015">
        <ele>50.31</ele>
        <time>2022-11-24T10:16:39Z</time>
      </trkpt>
      <trkpt lat="48.90914" lon="2.1014">
        <ele>49.4</ele>
        <time>2022-11-24T10:16:49Z</time>
      </trkpt>
      <trkpt lat="48.90898" lon="2.10138">
        <ele>49.33</ele>
        <time>2022-11-24T10:17:00Z</time>
      </trkpt>
      <trkpt lat="48.90896" lon="2.10138">
        <ele>49.39</ele>
        <time>2022-11-24T10:17:01Z</time>
      </trkpt>
      <trkpt lat="48.90894" lon="2.10138">
        <ele>49.95</ele>
        <time>2022-11-24T10:17:03Z</time>
      </trkpt>
      <trkpt lat="48.9088" lon="2.10136">
        <ele>49.45</ele>
        <time>2022-11-24T10:17:14Z</time>
      </trkpt>
      <trkpt lat="48.90866" lon="2.1013">
        <ele>49.52</ele>
        <time>2022-11-24T10:17:26Z</time>
      </trkpt>
      <trkpt lat="48.90845" lon="2.10125">
        <ele>49.75</ele>
        <time>2022-11-24T10:17:42Z</time>
      </trkpt>
      <trkpt lat="48.90839" lon="2.10122">
        <ele>49.27</ele>
        <time>2022-11-24T10:17:51Z</time>
      </trkpt>
      <trkpt lat="48.9083" lon="2.10115">
        <ele>49.24</ele>
        <time>2022-11-24T10:18:02Z</time>
      </trkpt>
      <trkpt lat="48.90823" lon="2.10111">
        <ele>50.56</ele>
        <time>2022-11-24T10:18:06Z</time>
      </trkpt>
      <trkpt lat="48.90808" lon="2.101">
        <ele>50.35</ele>
        <time>2022-11-24T10:18:18Z</time>
      </trkpt>
      <trkpt lat="48.90788" lon="2.10095">
        <ele>50.87</ele>
        <time>2022-11-24T10:18:32Z</time>
      </trkpt>
      <trkpt lat="48.90769" lon="2.10093">
        <ele>50.01</ele>
        <time>2022-11-24T10:18:43Z</time>
      </trkpt>
      <trkpt lat="48.90764" lon="2.10093">
        <ele>50.57</ele>
        <time>2022-11-24T10:18:47Z</time>
      </trkpt>
      <trkpt lat="48.90751" lon="2.10075">
        <ele>50.91</ele>
        <time>2022-11-24T10:19:03Z</time>
      </trkpt>
      <trkpt lat="48.9074" lon="2.10056">
        <ele>51.11</ele>
        <time>2022-11-24T10:19:18Z</time>
      </trkpt>
      <trkpt lat="48.90733" lon="2.10049">
        <ele>50.65</ele>
        <time>2022-11-24T10:19:26Z</time>
      </trkpt>
      <trkpt lat="48.90723" lon="2.10033">
        <ele>51.39</ele>
        <time>2022-11-24T10:19:38Z</time>
      </trkpt>
      <trkpt lat="48.90709" lon="2.1002">
        <ele>52.2</ele>
        <time>2022-11-24T10:19:53Z</time>
      </trkpt>
      <trkpt lat="48.90693" lon="2.10013">
        <ele>52.28</ele>
        <time>2022-11-24T10:20:06Z</time>
      </trkpt>
      <trkpt lat="48.90682" lon="2.10011">
        <ele>52.39</ele>
        <time>2022-11-24T10:20:13Z</time>
      </trkpt>
      <trkpt lat="48.90679" lon="2.10009">
        <ele>52.33</ele>
        <time>2022-11-24T10:20:15Z</time>
      </trkpt>
      <trkpt lat="48.90664" lon="2.10007">
        <ele>52.78</ele>
        <time>2022-11-24T10:20:25Z</time>
      </trkpt>
      <trkpt lat="48.90653" lon="2.10006">
        <ele>52.86</ele>
        <time>2022-11-24T10:20:34Z</time>
      </trkpt>
      <trkpt lat="48.90644" lon="2.10006">
        <ele>52.82</ele>
        <time>2022-11-24T10:20:39Z</time>
      </trkpt>
      <trkpt lat="48.90627" lon="2.10004">
        <ele>53</ele>
        <time>2022-11-24T10:20:51Z</time>
      </trkpt>
      <trkpt lat="48.90625" lon="2.10005">
        <ele>53.7</ele>
        <time>2022-11-24T10:20:53Z</time>
      </trkpt>
      <trkpt lat="48.90617" lon="2.10006">
        <ele>52.61</ele>
        <time>2022-11-24T10:21:00Z</time>
      </trkpt>
      <trkpt lat="48.90603" lon="2.1001">
        <ele>53.86</ele>
        <time>2022-11-24T10:21:10Z</time>
      </trkpt>
      <trkpt lat="48.9059" lon="2.10014">
        <ele>53.86</ele>
        <time>2022-11-24T10:21:19Z</time>
      </trkpt>
      <trkpt lat="48.90587" lon="2.10014">
        <ele>53.73</ele>
        <time>2022-11-24T10:21:22Z</time>
      </trkpt>
      <trkpt lat="48.90577" lon="2.10016">
        <ele>53.48</ele>
        <time>2022-11-24T10:21:29Z</time>
      </trkpt>
      <trkpt lat="48.90565" lon="2.10009">
        <ele>54.19</ele>
        <time>2022-11-24T10:21:39Z</time>
      </trkpt>
      <trkpt lat="48.90564" lon="2.10006">
        <ele>54.22</ele>
        <time>2022-11-24T10:21:41Z</time>
      </trkpt>
      <trkpt lat="48.90556" lon="2.09981">
        <ele>53.98</ele>
        <time>2022-11-24T10:21:57Z</time>
      </trkpt>
      <trkpt lat="48.90554" lon="2.09957">
        <ele>53.58</ele>
        <time>2022-11-24T10:22:12Z</time>
      </trkpt>
      <trkpt lat="48.90553" lon="2.09938">
        <ele>53.28</ele>
        <time>2022-11-24T10:22:28Z</time>
      </trkpt>
      <trkpt lat="48.90551" lon="2.09916">
        <ele>53.25</ele>
        <time>2022-11-24T10:22:43Z</time>
      </trkpt>
      <trkpt lat="48.90549" lon="2.09895">
        <ele>52.15</ele>
        <time>2022-11-24T10:22:59Z</time>
      </trkpt>
      <trkpt lat="48.90551" lon="2.09884">
        <ele>52.47</ele>
        <time>2022-11-24T10:23:18Z</time>
      </trkpt>
      <trkpt lat="48.90551" lon="2.0988">
        <ele>52.34</ele>
        <time>2022-11-24T10:23:23Z</time>
      </trkpt>
      <trkpt lat="48.90549" lon="2.09853">
        <ele>53.43</ele>
        <time>2022-11-24T10:23:38Z</time>
      </trkpt>
      <trkpt lat="48.9055" lon="2.09829">
        <ele>54.15</ele>
        <time>2022-11-24T10:23:53Z</time>
      </trkpt>
      <trkpt lat="48.90546" lon="2.09802">
        <ele>54.23</ele>
        <time>2022-11-24T10:24:07Z</time>
      </trkpt>
      <trkpt lat="48.90547" lon="2.09778">
        <ele>54.51</ele>
        <time>2022-11-24T10:24:23Z</time>
      </trkpt>
      <trkpt lat="48.90547" lon="2.09777">
        <ele>54.69</ele>
        <time>2022-11-24T10:24:24Z</time>
      </trkpt>
      <trkpt lat="48.90546" lon="2.09757">
        <ele>55.36</ele>
        <time>2022-11-24T10:24:39Z</time>
      </trkpt>
      <trkpt lat="48.9054" lon="2.09725">
        <ele>54.97</ele>
        <time>2022-11-24T10:24:55Z</time>
      </trkpt>
      <trkpt lat="48.90538" lon="2.097">
        <ele>55.49</ele>
        <time>2022-11-24T10:25:11Z</time>
      </trkpt>
      <trkpt lat="48.90537" lon="2.0969">
        <ele>54.98</ele>
        <time>2022-11-24T10:25:21Z</time>
      </trkpt>
      <trkpt lat="48.90536" lon="2.09684">
        <ele>54.78</ele>
        <time>2022-11-24T10:25:29Z</time>
      </trkpt>
      <trkpt lat="48.90528" lon="2.09676">
        <ele>54.78</ele>
        <time>2022-11-24T10:25:45Z</time>
      </trkpt>
      <trkpt lat="48.90526" lon="2.09675">
        <ele>55.16</ele>
        <time>2022-11-24T10:26:06Z</time>
      </trkpt>
    </trkseg>
  </trk>
</gpx>